CND5990 TNCC-EHAM
Flight info
| Callsign | CND5990 |
|---|---|
| Flight time | 8h 42m |
| Altitude | 39000 |
| Route | SCAPA1K SCAPA DCT DAWIN/M084F390 DCT KAVAX DCT 27N055W 31N050W 36N040W 42N030W/M084F410 45N025W 46N020W 48N015W DCT OMOKO DCT GUNSO DCT GAPLI/N0482F410 DCT GAJIT DCT ENHAQ M197 REDFA |
| Aircraft | A359/H-SDE2E3GHIJ3J4J5LM1ORWXY/LB1D1 |
Departure
| Time | 2026-04-29 08:41 |
|---|---|
| Airport | Hato International Airport (TNCC) |
Arrival
| Time | 2026-04-29 17:23 |
|---|---|
| Airport | Amsterdam Airport Schiphol (EHAM) |
| Time | Latitude | Longitude | Altitude | Speed | Heading |
|---|---|---|---|---|---|
| 2026-04-29 07:43 | 12.18545 | -68.95630 | 49 ft | 0 kts | 194° |
| 2026-04-29 08:31 | 12.18566 | -68.95625 | 45 ft | 4 kts | 191° |
| 2026-04-29 08:31 | 12.18588 | -68.95620 | 44 ft | 4 kts | 200° |
| 2026-04-29 08:32 | 12.18611 | -68.95607 | 45 ft | 4 kts | 227° |
| 2026-04-29 08:32 | 12.18624 | -68.95585 | 42 ft | 4 kts | 260° |
| 2026-04-29 08:32 | 12.18624 | -68.95559 | 45 ft | 3 kts | 281° |
| 2026-04-29 08:32 | 12.18623 | -68.95556 | 45 ft | 0 kts | 282° |
| 2026-04-29 08:34 | 12.18624 | -68.95559 | 45 ft | 3 kts | 282° |
| 2026-04-29 08:35 | 12.18635 | -68.95614 | 48 ft | 9 kts | 282° |
| 2026-04-29 08:35 | 12.18651 | -68.95690 | 44 ft | 13 kts | 282° |
| 2026-04-29 08:35 | 12.18675 | -68.95804 | 49 ft | 19 kts | 282° |
| 2026-04-29 08:35 | 12.18702 | -68.95929 | 48 ft | 18 kts | 282° |
| 2026-04-29 08:36 | 12.18730 | -68.96063 | 45 ft | 21 kts | 282° |
| 2026-04-29 08:36 | 12.18761 | -68.96212 | 45 ft | 22 kts | 282° |
| 2026-04-29 08:36 | 12.18794 | -68.96367 | 44 ft | 23 kts | 282° |
| 2026-04-29 08:36 | 12.18827 | -68.96530 | 43 ft | 24 kts | 282° |
| 2026-04-29 08:37 | 12.18863 | -68.96701 | 46 ft | 25 kts | 282° |
| 2026-04-29 08:37 | 12.18901 | -68.96881 | 42 ft | 26 kts | 282° |
| 2026-04-29 08:37 | 12.18939 | -68.97067 | 42 ft | 25 kts | 281° |
| 2026-04-29 08:37 | 12.18976 | -68.97245 | 46 ft | 26 kts | 282° |
| 2026-04-29 08:38 | 12.19014 | -68.97430 | 43 ft | 27 kts | 282° |
| 2026-04-29 08:38 | 12.19050 | -68.97595 | 45 ft | 13 kts | 283° |
| 2026-04-29 08:38 | 12.19072 | -68.97644 | 46 ft | 6 kts | 318° |
| 2026-04-29 08:38 | 12.19079 | -68.97647 | 46 ft | 0 kts | 334° |
| 2026-04-29 08:39 | 12.19086 | -68.97649 | 46 ft | 4 kts | 345° |
| 2026-04-29 08:39 | 12.19117 | -68.97648 | 46 ft | 5 kts | 9° |
| 2026-04-29 08:39 | 12.19133 | -68.97642 | 43 ft | 0 kts | 21° |
| 2026-04-29 08:40 | 12.19154 | -68.97632 | 46 ft | 8 kts | 25° |
| 2026-04-29 08:40 | 12.19193 | -68.97585 | 43 ft | 9 kts | 66° |
| 2026-04-29 08:40 | 12.19211 | -68.97517 | 45 ft | 10 kts | 89° |
| 2026-04-29 08:40 | 12.19199 | -68.97446 | 41 ft | 12 kts | 101° |
| 2026-04-29 08:41 | 12.19151 | -68.97211 | 45 ft | 64 kts | 102° |
| 2026-04-29 08:41 | 12.19014 | -68.96569 | 45 ft | 119 kts | 102° |
| 2026-04-29 08:41 | 12.18809 | -68.95581 | 120 ft | 156 kts | 102° |
| 2026-04-29 08:41 | 12.18616 | -68.94550 | 859 ft | 141 kts | 102° |
| 2026-04-29 08:42 | 12.18441 | -68.93580 | 1374 ft | 140 kts | 100° |
| 2026-04-29 08:42 | 12.18222 | -68.92574 | 1604 ft | 149 kts | 103° |
| 2026-04-29 08:42 | 12.17955 | -68.91521 | 1898 ft | 157 kts | 104° |
| 2026-04-29 08:42 | 12.17908 | -68.90381 | 2078 ft | 173 kts | 72° |
| 2026-04-29 08:43 | 12.18749 | -68.89417 | 2292 ft | 198 kts | 36° |
| 2026-04-29 08:43 | 12.20092 | -68.88840 | 2496 ft | 220 kts | 24° |
| 2026-04-29 08:43 | 12.21593 | -68.88335 | 2756 ft | 235 kts | 24° |
| 2026-04-29 08:43 | 12.23192 | -68.87780 | 3061 ft | 249 kts | 24° |
| 2026-04-29 08:44 | 12.24817 | -68.87197 | 3523 ft | 253 kts | 25° |
| 2026-04-29 08:44 | 12.26483 | -68.86588 | 4043 ft | 257 kts | 24° |
| 2026-04-29 08:44 | 12.28178 | -68.85959 | 4493 ft | 262 kts | 24° |
| 2026-04-29 08:44 | 12.29896 | -68.85319 | 5049 ft | 263 kts | 24° |
| 2026-04-29 08:45 | 12.31618 | -68.84675 | 5550 ft | 265 kts | 24° |
| 2026-04-29 08:45 | 12.33365 | -68.84020 | 6027 ft | 269 kts | 24° |
| 2026-04-29 08:45 | 12.35121 | -68.83360 | 6528 ft | 270 kts | 24° |
| 2026-04-29 08:45 | 12.36896 | -68.82692 | 7003 ft | 273 kts | 23° |
| 2026-04-29 08:46 | 12.38689 | -68.82018 | 7476 ft | 276 kts | 24° |
| 2026-04-29 08:46 | 12.40495 | -68.81338 | 7991 ft | 277 kts | 24° |
| 2026-04-29 08:46 | 12.42317 | -68.80652 | 8451 ft | 281 kts | 24° |
| 2026-04-29 08:46 | 12.44157 | -68.79960 | 8927 ft | 282 kts | 24° |
| 2026-04-29 08:47 | 12.46004 | -68.79264 | 9446 ft | 284 kts | 24° |
| 2026-04-29 08:47 | 12.47870 | -68.78561 | 9923 ft | 287 kts | 23° |
| 2026-04-29 08:47 | 12.49768 | -68.77845 | 10209 ft | 296 kts | 23° |
| 2026-04-29 08:47 | 12.51740 | -68.77100 | 10414 ft | 308 kts | 23° |
| 2026-04-29 08:48 | 12.53784 | -68.76329 | 10627 ft | 319 kts | 23° |
| 2026-04-29 08:48 | 12.55903 | -68.75529 | 10840 ft | 330 kts | 22° |
| 2026-04-29 08:48 | 12.58091 | -68.74705 | 11038 ft | 340 kts | 23° |
| 2026-04-29 08:48 | 12.60341 | -68.73857 | 11235 ft | 350 kts | 22° |
| 2026-04-29 08:49 | 12.62657 | -68.72984 | 11421 ft | 359 kts | 22° |
| 2026-04-29 08:49 | 12.65030 | -68.72089 | 11594 ft | 368 kts | 22° |
| 2026-04-29 08:49 | 12.67461 | -68.71175 | 11777 ft | 376 kts | 22° |
| 2026-04-29 08:49 | 12.69931 | -68.70243 | 12040 ft | 381 kts | 22° |
| 2026-04-29 08:50 | 12.72432 | -68.69297 | 12339 ft | 385 kts | 22° |
| 2026-04-29 08:50 | 12.74954 | -68.68343 | 12649 ft | 388 kts | 22° |
| 2026-04-29 08:50 | 12.77498 | -68.67380 | 12944 ft | 391 kts | 21° |
| 2026-04-29 08:50 | 12.80062 | -68.66410 | 13242 ft | 394 kts | 21° |
| 2026-04-29 08:51 | 12.82644 | -68.65433 | 13569 ft | 397 kts | 21° |
| 2026-04-29 08:51 | 12.85238 | -68.64451 | 13848 ft | 400 kts | 21° |
| 2026-04-29 08:51 | 12.87854 | -68.63461 | 14150 ft | 401 kts | 21° |
| 2026-04-29 08:51 | 12.90484 | -68.62465 | 14415 ft | 404 kts | 21° |
| 2026-04-29 08:52 | 12.93126 | -68.61464 | 14714 ft | 405 kts | 21° |
| 2026-04-29 08:52 | 12.95777 | -68.60460 | 14996 ft | 408 kts | 21° |
| 2026-04-29 08:52 | 12.98443 | -68.59449 | 15298 ft | 409 kts | 21° |
| 2026-04-29 08:52 | 13.01126 | -68.58432 | 15581 ft | 412 kts | 21° |
| 2026-04-29 08:53 | 13.03815 | -68.57413 | 15886 ft | 414 kts | 21° |
| 2026-04-29 08:53 | 13.06529 | -68.56384 | 16149 ft | 417 kts | 21° |
| 2026-04-29 08:53 | 13.09252 | -68.55351 | 16455 ft | 418 kts | 21° |
| 2026-04-29 08:53 | 13.11993 | -68.54311 | 16744 ft | 421 kts | 21° |
| 2026-04-29 08:54 | 13.14744 | -68.53267 | 17038 ft | 423 kts | 21° |
| 2026-04-29 08:54 | 13.17471 | -68.52232 | 17322 ft | 424 kts | 21° |
| 2026-04-29 08:54 | 13.20283 | -68.51164 | 17601 ft | 427 kts | 21° |
| 2026-04-29 08:54 | 13.23035 | -68.50119 | 17904 ft | 428 kts | 21° |
| 2026-04-29 08:55 | 13.25841 | -68.49053 | 18131 ft | 432 kts | 21° |
| 2026-04-29 08:55 | 13.28665 | -68.47980 | 18364 ft | 434 kts | 20° |
| 2026-04-29 08:55 | 13.31510 | -68.46899 | 18548 ft | 438 kts | 20° |
| 2026-04-29 08:55 | 13.34360 | -68.45816 | 18817 ft | 438 kts | 20° |
| 2026-04-29 08:56 | 13.37233 | -68.44723 | 19004 ft | 441 kts | 20° |
| 2026-04-29 08:56 | 13.40116 | -68.43627 | 19247 ft | 443 kts | 20° |
| 2026-04-29 08:56 | 13.43016 | -68.42523 | 19469 ft | 444 kts | 20° |
| 2026-04-29 08:56 | 13.45923 | -68.41418 | 19674 ft | 447 kts | 20° |
| 2026-04-29 08:57 | 13.48840 | -68.40307 | 19927 ft | 448 kts | 20° |
| 2026-04-29 08:57 | 13.51775 | -68.39190 | 20091 ft | 451 kts | 20° |
| 2026-04-29 08:57 | 13.54722 | -68.38067 | 20353 ft | 452 kts | 20° |
| 2026-04-29 08:57 | 13.57685 | -68.36939 | 20514 ft | 455 kts | 20° |
| 2026-04-29 08:58 | 13.60654 | -68.35808 | 20755 ft | 456 kts | 20° |
| 2026-04-29 08:58 | 13.63637 | -68.34670 | 20981 ft | 457 kts | 20° |
| 2026-04-29 08:58 | 13.66620 | -68.33533 | 21163 ft | 460 kts | 20° |
| 2026-04-29 08:58 | 13.69622 | -68.32388 | 21420 ft | 460 kts | 20° |
| 2026-04-29 08:59 | 13.72635 | -68.31239 | 21559 ft | 463 kts | 20° |
| 2026-04-29 08:59 | 13.75658 | -68.30086 | 21802 ft | 464 kts | 20° |
| 2026-04-29 08:59 | 13.78693 | -68.28927 | 22006 ft | 465 kts | 20° |
| 2026-04-29 08:59 | 13.81726 | -68.27770 | 22206 ft | 467 kts | 20° |
| 2026-04-29 09:00 | 13.84778 | -68.26604 | 22425 ft | 468 kts | 20° |
| 2026-04-29 09:00 | 13.87841 | -68.25434 | 22563 ft | 471 kts | 20° |
| 2026-04-29 09:00 | 13.90914 | -68.24260 | 22816 ft | 471 kts | 20° |
| 2026-04-29 09:00 | 13.93997 | -68.23082 | 22983 ft | 473 kts | 20° |
| 2026-04-29 09:01 | 13.97087 | -68.21900 | 23178 ft | 475 kts | 20° |
| 2026-04-29 09:01 | 14.00145 | -68.20731 | 23370 ft | 476 kts | 20° |
| 2026-04-29 09:01 | 14.03256 | -68.19541 | 23512 ft | 478 kts | 20° |
| 2026-04-29 09:01 | 14.06370 | -68.18349 | 23709 ft | 478 kts | 20° |
| 2026-04-29 09:02 | 14.09496 | -68.17153 | 23863 ft | 479 kts | 20° |
| 2026-04-29 09:02 | 14.12626 | -68.15955 | 24023 ft | 481 kts | 20° |
| 2026-04-29 09:02 | 14.15764 | -68.14753 | 24209 ft | 481 kts | 19° |
| 2026-04-29 09:02 | 14.18907 | -68.13549 | 24339 ft | 483 kts | 19° |
| 2026-04-29 09:03 | 14.22056 | -68.12343 | 24522 ft | 483 kts | 19° |
| 2026-04-29 09:03 | 14.25210 | -68.11134 | 24700 ft | 483 kts | 19° |
| 2026-04-29 09:03 | 14.28355 | -68.09928 | 24891 ft | 483 kts | 19° |
| 2026-04-29 09:03 | 14.31511 | -68.08717 | 25069 ft | 484 kts | 19° |
| 2026-04-29 09:04 | 14.34674 | -68.07504 | 25210 ft | 485 kts | 19° |
| 2026-04-29 09:04 | 14.37842 | -68.06288 | 25363 ft | 486 kts | 19° |
| 2026-04-29 09:04 | 14.41009 | -68.05072 | 25526 ft | 487 kts | 19° |
| 2026-04-29 09:04 | 14.44187 | -68.03852 | 25697 ft | 488 kts | 19° |
| 2026-04-29 09:05 | 14.47371 | -68.02629 | 25841 ft | 488 kts | 19° |
| 2026-04-29 09:05 | 14.50559 | -68.01404 | 25994 ft | 489 kts | 19° |
| 2026-04-29 09:05 | 14.53752 | -68.00177 | 26154 ft | 490 kts | 19° |
| 2026-04-29 09:05 | 14.56904 | -67.98964 | 26310 ft | 491 kts | 18° |
| 2026-04-29 09:06 | 14.60117 | -67.97729 | 26400 ft | 494 kts | 18° |
| 2026-04-29 09:06 | 14.63340 | -67.96489 | 26545 ft | 495 kts | 18° |
| 2026-04-29 09:06 | 14.66568 | -67.95247 | 26714 ft | 495 kts | 18° |
| 2026-04-29 09:06 | 14.69794 | -67.94005 | 26862 ft | 496 kts | 18° |
| 2026-04-29 09:07 | 14.73033 | -67.92758 | 27009 ft | 497 kts | 18° |
| 2026-04-29 09:07 | 14.76277 | -67.91508 | 27156 ft | 498 kts | 18° |
| 2026-04-29 09:07 | 14.79528 | -67.90255 | 27307 ft | 499 kts | 18° |
| 2026-04-29 09:07 | 14.82785 | -67.89000 | 27467 ft | 500 kts | 18° |
| 2026-04-29 09:08 | 14.86049 | -67.87742 | 27613 ft | 501 kts | 18° |
| 2026-04-29 09:08 | 14.89312 | -67.86483 | 27755 ft | 502 kts | 17° |
| 2026-04-29 09:08 | 14.92595 | -67.85217 | 27857 ft | 504 kts | 17° |
| 2026-04-29 09:08 | 14.95886 | -67.83947 | 28007 ft | 505 kts | 17° |
| 2026-04-29 09:09 | 14.99181 | -67.82674 | 28158 ft | 506 kts | 17° |
| 2026-04-29 09:09 | 15.02482 | -67.81399 | 28293 ft | 507 kts | 17° |
| 2026-04-29 09:09 | 15.05789 | -67.80122 | 28451 ft | 508 kts | 17° |
| 2026-04-29 09:09 | 15.09103 | -67.78841 | 28578 ft | 509 kts | 17° |
| 2026-04-29 09:10 | 15.12416 | -67.77560 | 28728 ft | 510 kts | 17° |
| 2026-04-29 09:10 | 15.15742 | -67.76274 | 28851 ft | 511 kts | 17° |
| 2026-04-29 09:10 | 15.19075 | -67.74985 | 28990 ft | 512 kts | 17° |
| 2026-04-29 09:11 | 15.25769 | -67.72394 | 29203 ft | 515 kts | 17° |
| 2026-04-29 09:11 | 15.29120 | -67.71096 | 29345 ft | 515 kts | 17° |
| 2026-04-29 09:11 | 15.32482 | -67.69794 | 29485 ft | 516 kts | 17° |
| 2026-04-29 09:11 | 15.35850 | -67.68488 | 29625 ft | 517 kts | 16° |
| 2026-04-29 09:12 | 15.39182 | -67.67197 | 29736 ft | 518 kts | 16° |
| 2026-04-29 09:12 | 15.42606 | -67.65869 | 29863 ft | 519 kts | 16° |
| 2026-04-29 09:12 | 15.45945 | -67.64574 | 29998 ft | 520 kts | 16° |
| 2026-04-29 09:12 | 15.49338 | -67.63258 | 30099 ft | 521 kts | 16° |
| 2026-04-29 09:13 | 15.52738 | -67.61938 | 30187 ft | 523 kts | 16° |
| 2026-04-29 09:13 | 15.59573 | -67.59283 | 30349 ft | 526 kts | 16° |
| 2026-04-29 09:13 | 15.63005 | -67.57950 | 30457 ft | 527 kts | 16° |
| 2026-04-29 09:14 | 15.66440 | -67.56614 | 30580 ft | 528 kts | 16° |
| 2026-04-29 09:14 | 15.73325 | -67.53936 | 30791 ft | 530 kts | 16° |
| 2026-04-29 09:14 | 15.76770 | -67.52595 | 31017 ft | 528 kts | 16° |
| 2026-04-29 09:15 | 15.80191 | -67.51210 | 31200 ft | 529 kts | 19° |
| 2026-04-29 09:15 | 15.83452 | -67.49386 | 31325 ft | 537 kts | 30° |
| 2026-04-29 09:15 | 15.86385 | -67.46967 | 31467 ft | 542 kts | 39° |
| 2026-04-29 09:15 | 15.89132 | -67.44278 | 31624 ft | 543 kts | 41° |
| 2026-04-29 09:16 | 15.91821 | -67.41516 | 31762 ft | 544 kts | 41° |
| 2026-04-29 09:16 | 15.94487 | -67.38721 | 31923 ft | 544 kts | 42° |
| 2026-04-29 09:16 | 15.97149 | -67.35921 | 32070 ft | 544 kts | 41° |
| 2026-04-29 09:16 | 15.99816 | -67.33126 | 32237 ft | 545 kts | 41° |
| 2026-04-29 09:17 | 16.02453 | -67.30375 | 32359 ft | 545 kts | 41° |
| 2026-04-29 09:17 | 16.05136 | -67.27589 | 32517 ft | 545 kts | 41° |
| 2026-04-29 09:17 | 16.07823 | -67.24806 | 32676 ft | 545 kts | 41° |
| 2026-04-29 09:17 | 16.10512 | -67.22024 | 32830 ft | 545 kts | 41° |
| 2026-04-29 09:18 | 16.13200 | -67.19244 | 33050 ft | 544 kts | 41° |
| 2026-04-29 09:18 | 16.15875 | -67.16475 | 33267 ft | 543 kts | 41° |
| 2026-04-29 09:18 | 16.18556 | -67.13698 | 33415 ft | 544 kts | 40° |
| 2026-04-29 09:18 | 16.21240 | -67.10919 | 33573 ft | 544 kts | 40° |
| 2026-04-29 09:19 | 16.23020 | -67.09074 | 33690 ft | 545 kts | 40° |
| 2026-04-29 09:19 | 16.25699 | -67.06297 | 33859 ft | 545 kts | 40° |
| 2026-04-29 09:19 | 16.28386 | -67.03509 | 34027 ft | 545 kts | 40° |
| 2026-04-29 09:19 | 16.31072 | -67.00722 | 34182 ft | 545 kts | 40° |
| 2026-04-29 09:20 | 16.33755 | -66.97935 | 34369 ft | 544 kts | 40° |
| 2026-04-29 09:20 | 16.36430 | -66.95156 | 34552 ft | 544 kts | 40° |
| 2026-04-29 09:20 | 16.39107 | -66.92374 | 34743 ft | 543 kts | 40° |
| 2026-04-29 09:20 | 16.41781 | -66.89593 | 34946 ft | 543 kts | 40° |
| 2026-04-29 09:21 | 16.44447 | -66.86819 | 35167 ft | 541 kts | 40° |
| 2026-04-29 09:21 | 16.47103 | -66.84055 | 35408 ft | 539 kts | 40° |
| 2026-04-29 09:21 | 16.49756 | -66.81294 | 35590 ft | 539 kts | 40° |
| 2026-04-29 09:21 | 16.53268 | -66.77638 | 35811 ft | 539 kts | 40° |
| 2026-04-29 09:22 | 16.55059 | -66.75773 | 35938 ft | 538 kts | 40° |
| 2026-04-29 09:22 | 16.57701 | -66.73019 | 36118 ft | 538 kts | 40° |
| 2026-04-29 09:22 | 16.60345 | -66.70262 | 36296 ft | 537 kts | 40° |
| 2026-04-29 09:22 | 16.62988 | -66.67507 | 36481 ft | 537 kts | 40° |
| 2026-04-29 09:23 | 16.65594 | -66.64788 | 36655 ft | 536 kts | 40° |
| 2026-04-29 09:23 | 16.68227 | -66.62039 | 36812 ft | 536 kts | 40° |
| 2026-04-29 09:23 | 16.70863 | -66.59286 | 37001 ft | 536 kts | 40° |
| 2026-04-29 09:23 | 16.73496 | -66.56536 | 37160 ft | 535 kts | 40° |
| 2026-04-29 09:24 | 16.76124 | -66.53789 | 37376 ft | 534 kts | 40° |
| 2026-04-29 09:24 | 16.78746 | -66.51046 | 37557 ft | 533 kts | 40° |
| 2026-04-29 09:24 | 16.81359 | -66.48313 | 37715 ft | 533 kts | 40° |
| 2026-04-29 09:24 | 16.83977 | -66.45574 | 37860 ft | 533 kts | 40° |
| 2026-04-29 09:25 | 16.86593 | -66.42836 | 38006 ft | 532 kts | 40° |
| 2026-04-29 09:25 | 16.89209 | -66.40097 | 38150 ft | 532 kts | 40° |
| 2026-04-29 09:25 | 16.91821 | -66.37360 | 38292 ft | 532 kts | 40° |
| 2026-04-29 09:25 | 16.94426 | -66.34629 | 38432 ft | 531 kts | 40° |
| 2026-04-29 09:26 | 16.97036 | -66.31893 | 38584 ft | 531 kts | 40° |
| 2026-04-29 09:26 | 16.99641 | -66.29159 | 38712 ft | 530 kts | 40° |
| 2026-04-29 09:26 | 17.02242 | -66.26429 | 38856 ft | 529 kts | 40° |
| 2026-04-29 09:27 | 17.07444 | -66.20966 | 38955 ft | 531 kts | 40° |
| 2026-04-29 09:27 | 17.12661 | -66.15485 | 38961 ft | 532 kts | 40° |
| 2026-04-29 09:28 | 17.17878 | -66.09997 | 38962 ft | 532 kts | 40° |
| 2026-04-29 09:28 | 17.23090 | -66.04508 | 38963 ft | 531 kts | 40° |
| 2026-04-29 09:29 | 17.28263 | -65.99058 | 38964 ft | 531 kts | 40° |
| 2026-04-29 09:29 | 17.36076 | -65.90817 | 38967 ft | 532 kts | 40° |
| 2026-04-29 09:30 | 17.41279 | -65.85322 | 38966 ft | 532 kts | 40° |
| 2026-04-29 09:30 | 17.46488 | -65.79818 | 38967 ft | 532 kts | 40° |
| 2026-04-29 09:31 | 17.51695 | -65.74309 | 38969 ft | 532 kts | 40° |
| 2026-04-29 09:31 | 17.56902 | -65.68797 | 38975 ft | 532 kts | 40° |
| 2026-04-29 09:32 | 17.62107 | -65.63282 | 38971 ft | 533 kts | 40° |
| 2026-04-29 09:32 | 17.67319 | -65.57754 | 38970 ft | 532 kts | 40° |
| 2026-04-29 09:33 | 17.72523 | -65.52229 | 38972 ft | 532 kts | 40° |
| 2026-04-29 09:33 | 17.77687 | -65.46743 | 38971 ft | 532 kts | 40° |
| 2026-04-29 09:34 | 17.82882 | -65.41220 | 38985 ft | 532 kts | 40° |
| 2026-04-29 09:34 | 17.88088 | -65.35680 | 38972 ft | 533 kts | 40° |
| 2026-04-29 09:35 | 17.93291 | -65.30138 | 38973 ft | 533 kts | 40° |
| 2026-04-29 09:35 | 17.98497 | -65.24587 | 38978 ft | 533 kts | 40° |
| 2026-04-29 09:36 | 18.03695 | -65.19040 | 38973 ft | 533 kts | 40° |
| 2026-04-29 09:36 | 18.08894 | -65.13487 | 38997 ft | 533 kts | 40° |
| 2026-04-29 09:37 | 18.14094 | -65.07929 | 38979 ft | 533 kts | 40° |
| 2026-04-29 09:37 | 18.19292 | -65.02367 | 38977 ft | 533 kts | 40° |
| 2026-04-29 09:38 | 18.24489 | -64.96801 | 38974 ft | 533 kts | 40° |
| 2026-04-29 09:38 | 18.29680 | -64.91237 | 38981 ft | 533 kts | 40° |
| 2026-04-29 09:39 | 18.34834 | -64.85707 | 38980 ft | 533 kts | 40° |
| 2026-04-29 09:39 | 18.40021 | -64.80136 | 38985 ft | 533 kts | 40° |
| 2026-04-29 09:40 | 18.45215 | -64.74554 | 38984 ft | 534 kts | 40° |
| 2026-04-29 09:40 | 18.50408 | -64.68968 | 38989 ft | 534 kts | 40° |
| 2026-04-29 09:41 | 18.55603 | -64.63373 | 38981 ft | 534 kts | 40° |
| 2026-04-29 09:41 | 18.60795 | -64.57776 | 38989 ft | 534 kts | 40° |
| 2026-04-29 09:42 | 18.65979 | -64.52184 | 38988 ft | 534 kts | 40° |
| 2026-04-29 09:42 | 18.71169 | -64.46580 | 38988 ft | 534 kts | 40° |
| 2026-04-29 09:43 | 18.76327 | -64.41005 | 38988 ft | 534 kts | 40° |
| 2026-04-29 09:43 | 18.81512 | -64.35395 | 38982 ft | 534 kts | 40° |
| 2026-04-29 09:44 | 18.86700 | -64.29777 | 38988 ft | 534 kts | 40° |
| 2026-04-29 09:44 | 18.91878 | -64.24164 | 38991 ft | 534 kts | 40° |
| 2026-04-29 09:45 | 18.97067 | -64.18536 | 38991 ft | 535 kts | 40° |
| 2026-04-29 09:45 | 19.02254 | -64.12904 | 38990 ft | 535 kts | 40° |
| 2026-04-29 09:46 | 19.07442 | -64.07263 | 38990 ft | 535 kts | 40° |
| 2026-04-29 09:46 | 19.12629 | -64.01619 | 38990 ft | 535 kts | 40° |
| 2026-04-29 09:47 | 19.17811 | -63.95976 | 38994 ft | 535 kts | 40° |
| 2026-04-29 09:47 | 19.23003 | -63.90317 | 38991 ft | 536 kts | 40° |
| 2026-04-29 09:48 | 19.28200 | -63.84646 | 38993 ft | 537 kts | 40° |
| 2026-04-29 09:48 | 19.33358 | -63.79012 | 38989 ft | 537 kts | 40° |
| 2026-04-29 09:49 | 19.38553 | -63.73332 | 38989 ft | 537 kts | 40° |
| 2026-04-29 09:49 | 19.43743 | -63.67651 | 38991 ft | 536 kts | 40° |
| 2026-04-29 09:50 | 19.48926 | -63.61974 | 38996 ft | 536 kts | 40° |
| 2026-04-29 09:50 | 19.54112 | -63.56288 | 38996 ft | 536 kts | 40° |
| 2026-04-29 09:51 | 19.59294 | -63.50599 | 38996 ft | 536 kts | 40° |
| 2026-04-29 09:51 | 19.64475 | -63.44907 | 38993 ft | 536 kts | 40° |
| 2026-04-29 09:52 | 19.69649 | -63.39217 | 39007 ft | 536 kts | 40° |
| 2026-04-29 09:52 | 19.74830 | -63.33514 | 38999 ft | 537 kts | 40° |
| 2026-04-29 09:53 | 19.80015 | -63.27801 | 38996 ft | 537 kts | 40° |
| 2026-04-29 09:53 | 19.85160 | -63.22126 | 39000 ft | 537 kts | 40° |
| 2026-04-29 09:54 | 19.90341 | -63.16404 | 38997 ft | 537 kts | 40° |
| 2026-04-29 09:54 | 19.95519 | -63.10680 | 39001 ft | 537 kts | 40° |
| 2026-04-29 09:55 | 20.00697 | -63.04953 | 38997 ft | 538 kts | 40° |
| 2026-04-29 09:55 | 20.05881 | -62.99211 | 38994 ft | 538 kts | 40° |
| 2026-04-29 09:56 | 20.11064 | -62.93465 | 38998 ft | 538 kts | 40° |
| 2026-04-29 09:56 | 20.16244 | -62.87715 | 39003 ft | 538 kts | 40° |
| 2026-04-29 09:57 | 20.21419 | -62.81967 | 38998 ft | 538 kts | 41° |
| 2026-04-29 09:57 | 20.26606 | -62.76200 | 39001 ft | 539 kts | 41° |
| 2026-04-29 09:58 | 20.31795 | -62.70423 | 39005 ft | 540 kts | 41° |
| 2026-04-29 09:58 | 20.36982 | -62.64642 | 39004 ft | 540 kts | 41° |
| 2026-04-29 09:59 | 20.42165 | -62.58860 | 39003 ft | 540 kts | 41° |
| 2026-04-29 09:59 | 20.47315 | -62.53109 | 39007 ft | 540 kts | 41° |
| 2026-04-29 10:00 | 20.52508 | -62.47305 | 39004 ft | 541 kts | 41° |
| 2026-04-29 10:00 | 20.57803 | -62.41627 | 39005 ft | 538 kts | 37° |
| 2026-04-29 10:01 | 20.63369 | -62.36312 | 39007 ft | 536 kts | 36° |
| 2026-04-29 10:01 | 20.68947 | -62.31016 | 39007 ft | 537 kts | 36° |
| 2026-04-29 10:02 | 20.74485 | -62.25653 | 39010 ft | 538 kts | 36° |
| 2026-04-29 10:02 | 20.80002 | -62.20255 | 39007 ft | 538 kts | 37° |
| 2026-04-29 10:03 | 20.85517 | -62.14842 | 39010 ft | 538 kts | 37° |
| 2026-04-29 10:03 | 20.91032 | -62.09428 | 39009 ft | 538 kts | 37° |
| 2026-04-29 10:04 | 20.96547 | -62.04011 | 39023 ft | 538 kts | 37° |
| 2026-04-29 10:04 | 21.02065 | -61.98586 | 39009 ft | 539 kts | 37° |
| 2026-04-29 10:05 | 21.07539 | -61.93199 | 39009 ft | 539 kts | 37° |
| 2026-04-29 10:05 | 21.13055 | -61.87765 | 39006 ft | 539 kts | 37° |
| 2026-04-29 10:06 | 21.18570 | -61.82325 | 39011 ft | 539 kts | 37° |
| 2026-04-29 10:06 | 21.24085 | -61.76880 | 39010 ft | 539 kts | 37° |
| 2026-04-29 10:07 | 21.29598 | -61.71432 | 39009 ft | 539 kts | 37° |
| 2026-04-29 10:07 | 21.35114 | -61.65974 | 39009 ft | 539 kts | 37° |
| 2026-04-29 10:08 | 21.40627 | -61.60514 | 39009 ft | 539 kts | 37° |
| 2026-04-29 10:08 | 21.46135 | -61.55053 | 39021 ft | 539 kts | 37° |
| 2026-04-29 10:09 | 21.51645 | -61.49584 | 39009 ft | 540 kts | 37° |
| 2026-04-29 10:09 | 21.57155 | -61.44109 | 39009 ft | 540 kts | 37° |
| 2026-04-29 10:10 | 21.62665 | -61.38627 | 39010 ft | 540 kts | 37° |
| 2026-04-29 10:10 | 21.68135 | -61.33180 | 39001 ft | 540 kts | 37° |
| 2026-04-29 10:11 | 21.73639 | -61.27693 | 39003 ft | 540 kts | 37° |
| 2026-04-29 10:11 | 21.79147 | -61.22196 | 39007 ft | 540 kts | 37° |
| 2026-04-29 10:12 | 21.84655 | -61.16693 | 39015 ft | 540 kts | 37° |
| 2026-04-29 10:12 | 21.90163 | -61.11183 | 39002 ft | 540 kts | 37° |
| 2026-04-29 10:13 | 21.95668 | -61.05671 | 39003 ft | 540 kts | 37° |
| 2026-04-29 10:13 | 22.01172 | -61.00154 | 38999 ft | 540 kts | 37° |
| 2026-04-29 10:14 | 22.06672 | -60.94635 | 39003 ft | 540 kts | 37° |
| 2026-04-29 10:14 | 22.12174 | -60.89107 | 39002 ft | 541 kts | 37° |
| 2026-04-29 10:15 | 22.17670 | -60.83579 | 39014 ft | 541 kts | 37° |
| 2026-04-29 10:15 | 22.22245 | -60.78973 | 39013 ft | 541 kts | 37° |
| 2026-04-29 10:16 | 22.27744 | -60.73431 | 39001 ft | 541 kts | 38° |
| 2026-04-29 10:16 | 22.34139 | -60.66978 | 39004 ft | 541 kts | 38° |
| 2026-04-29 10:17 | 22.39640 | -60.61420 | 39001 ft | 541 kts | 38° |
| 2026-04-29 10:17 | 22.44250 | -60.56757 | 39012 ft | 542 kts | 37° |
| 2026-04-29 10:18 | 22.49755 | -60.51184 | 39004 ft | 542 kts | 37° |
| 2026-04-29 10:18 | 22.55259 | -60.45605 | 38991 ft | 542 kts | 38° |
| 2026-04-29 10:19 | 22.60726 | -60.40058 | 39007 ft | 543 kts | 38° |
| 2026-04-29 10:19 | 22.66268 | -60.34427 | 39019 ft | 543 kts | 37° |
| 2026-04-29 10:20 | 22.71734 | -60.28868 | 39004 ft | 543 kts | 37° |
| 2026-04-29 10:20 | 22.77232 | -60.23268 | 39004 ft | 543 kts | 37° |
| 2026-04-29 10:21 | 22.82730 | -60.17664 | 39004 ft | 543 kts | 37° |
| 2026-04-29 10:21 | 22.88232 | -60.12049 | 39027 ft | 544 kts | 38° |
| 2026-04-29 10:22 | 22.93735 | -60.06425 | 39003 ft | 544 kts | 37° |
| 2026-04-29 10:22 | 22.99236 | -60.00798 | 39002 ft | 544 kts | 37° |
| 2026-04-29 10:23 | 23.04587 | -59.94962 | 38997 ft | 547 kts | 42° |
| 2026-04-29 10:23 | 23.09647 | -59.88768 | 39000 ft | 548 kts | 43° |
| 2026-04-29 10:24 | 23.14707 | -59.82571 | 39005 ft | 548 kts | 43° |
| 2026-04-29 10:24 | 23.19827 | -59.76416 | 38989 ft | 548 kts | 42° |
| 2026-04-29 10:25 | 23.24963 | -59.70289 | 39004 ft | 548 kts | 42° |
| 2026-04-29 10:25 | 23.30098 | -59.64163 | 39006 ft | 548 kts | 42° |
| 2026-04-29 10:26 | 23.35233 | -59.58024 | 38999 ft | 548 kts | 42° |
| 2026-04-29 10:26 | 23.40372 | -59.51871 | 38999 ft | 550 kts | 42° |
| 2026-04-29 10:27 | 23.48082 | -59.42623 | 38996 ft | 550 kts | 42° |
| 2026-04-29 10:28 | 23.53221 | -59.36447 | 39001 ft | 550 kts | 42° |
| 2026-04-29 10:28 | 23.58356 | -59.30271 | 38996 ft | 550 kts | 42° |
| 2026-04-29 10:29 | 23.63499 | -59.24077 | 38998 ft | 551 kts | 42° |
| 2026-04-29 10:29 | 23.68639 | -59.17878 | 38996 ft | 551 kts | 42° |
| 2026-04-29 10:30 | 23.73783 | -59.11667 | 38994 ft | 551 kts | 42° |
| 2026-04-29 10:30 | 23.78885 | -59.05499 | 39003 ft | 551 kts | 42° |
| 2026-04-29 10:31 | 23.84026 | -58.99276 | 38994 ft | 551 kts | 43° |
| 2026-04-29 10:31 | 23.89159 | -58.93054 | 38996 ft | 551 kts | 43° |
| 2026-04-29 10:32 | 23.94288 | -58.86830 | 38993 ft | 551 kts | 43° |
| 2026-04-29 10:32 | 23.99422 | -58.80592 | 39010 ft | 552 kts | 43° |
| 2026-04-29 10:33 | 24.04544 | -58.74359 | 38992 ft | 551 kts | 43° |
| 2026-04-29 10:33 | 24.09667 | -58.68118 | 38991 ft | 551 kts | 43° |
| 2026-04-29 10:34 | 24.14781 | -58.61879 | 38990 ft | 551 kts | 43° |
| 2026-04-29 10:34 | 24.19896 | -58.55631 | 38992 ft | 551 kts | 43° |
| 2026-04-29 10:35 | 24.25004 | -58.49384 | 38987 ft | 551 kts | 43° |
| 2026-04-29 10:35 | 24.30114 | -58.43126 | 38988 ft | 551 kts | 43° |
| 2026-04-29 10:36 | 24.35233 | -58.36849 | 38985 ft | 552 kts | 43° |
| 2026-04-29 10:36 | 24.40313 | -58.30611 | 39003 ft | 552 kts | 43° |
| 2026-04-29 10:37 | 24.45419 | -58.24332 | 38988 ft | 551 kts | 43° |
| 2026-04-29 10:37 | 24.50525 | -58.18047 | 38983 ft | 551 kts | 43° |
| 2026-04-29 10:38 | 24.55628 | -58.11757 | 38988 ft | 552 kts | 43° |
| 2026-04-29 10:38 | 24.60737 | -58.05451 | 38985 ft | 552 kts | 43° |
| 2026-04-29 10:39 | 24.65843 | -57.99139 | 38984 ft | 552 kts | 43° |
| 2026-04-29 10:39 | 24.70938 | -57.92832 | 38981 ft | 552 kts | 43° |
| 2026-04-29 10:40 | 24.76038 | -57.86512 | 38978 ft | 553 kts | 43° |
| 2026-04-29 10:40 | 24.81145 | -57.80175 | 38984 ft | 553 kts | 43° |
| 2026-04-29 10:41 | 24.86243 | -57.73839 | 38975 ft | 552 kts | 43° |
| 2026-04-29 10:41 | 24.91335 | -57.67502 | 38976 ft | 552 kts | 43° |
| 2026-04-29 10:42 | 24.96384 | -57.61212 | 38981 ft | 553 kts | 43° |
| 2026-04-29 10:42 | 25.01477 | -57.54858 | 38980 ft | 554 kts | 43° |
| 2026-04-29 10:43 | 25.06573 | -57.48491 | 38978 ft | 552 kts | 43° |
| 2026-04-29 10:43 | 25.11644 | -57.42143 | 38974 ft | 551 kts | 43° |
| 2026-04-29 10:44 | 25.16702 | -57.35808 | 38965 ft | 551 kts | 43° |
| 2026-04-29 10:44 | 25.21775 | -57.29447 | 38972 ft | 553 kts | 43° |
| 2026-04-29 10:45 | 25.26854 | -57.23065 | 38969 ft | 552 kts | 43° |
| 2026-04-29 10:45 | 25.31910 | -57.16703 | 38968 ft | 550 kts | 43° |
| 2026-04-29 10:46 | 25.36960 | -57.10341 | 38966 ft | 550 kts | 43° |
| 2026-04-29 10:46 | 25.42018 | -57.03964 | 38966 ft | 552 kts | 43° |
| 2026-04-29 10:47 | 25.47076 | -56.97573 | 38963 ft | 550 kts | 43° |
| 2026-04-29 10:47 | 25.52104 | -56.91210 | 38965 ft | 549 kts | 43° |
| 2026-04-29 10:48 | 25.57129 | -56.84845 | 38967 ft | 548 kts | 43° |
| 2026-04-29 10:48 | 25.62152 | -56.78475 | 38966 ft | 550 kts | 43° |
| 2026-04-29 10:49 | 25.67172 | -56.72098 | 38962 ft | 547 kts | 44° |
| 2026-04-29 10:49 | 25.72156 | -56.65756 | 38961 ft | 545 kts | 44° |
| 2026-04-29 10:50 | 25.77131 | -56.59420 | 38963 ft | 544 kts | 44° |
| 2026-04-29 10:50 | 25.82073 | -56.53119 | 38979 ft | 546 kts | 44° |
| 2026-04-29 10:51 | 25.87045 | -56.46768 | 38955 ft | 542 kts | 44° |
| 2026-04-29 10:51 | 25.91976 | -56.40456 | 38957 ft | 540 kts | 44° |
| 2026-04-29 10:52 | 25.96892 | -56.34162 | 38955 ft | 540 kts | 44° |
| 2026-04-29 10:52 | 26.01809 | -56.27857 | 38970 ft | 540 kts | 44° |
| 2026-04-29 10:53 | 26.06729 | -56.21538 | 38950 ft | 539 kts | 44° |
| 2026-04-29 10:53 | 26.11627 | -56.15236 | 38951 ft | 538 kts | 44° |
| 2026-04-29 10:54 | 26.16516 | -56.08940 | 38950 ft | 538 kts | 44° |
| 2026-04-29 10:54 | 26.21406 | -56.02633 | 38950 ft | 538 kts | 44° |
| 2026-04-29 10:55 | 26.26292 | -55.96322 | 38948 ft | 538 kts | 44° |
| 2026-04-29 10:55 | 26.31168 | -55.90016 | 38954 ft | 538 kts | 44° |
| 2026-04-29 10:56 | 26.36018 | -55.83734 | 38956 ft | 538 kts | 44° |
| 2026-04-29 10:56 | 26.40927 | -55.77367 | 38952 ft | 537 kts | 44° |
| 2026-04-29 10:57 | 26.45753 | -55.71096 | 38956 ft | 537 kts | 44° |
| 2026-04-29 10:57 | 26.50619 | -55.64767 | 38953 ft | 537 kts | 44° |
| 2026-04-29 10:58 | 26.55481 | -55.58435 | 38947 ft | 537 kts | 44° |
| 2026-04-29 10:58 | 26.60334 | -55.52104 | 38944 ft | 536 kts | 44° |
| 2026-04-29 10:59 | 26.65177 | -55.45776 | 38947 ft | 536 kts | 44° |
| 2026-04-29 10:59 | 26.70017 | -55.39445 | 38945 ft | 536 kts | 44° |
| 2026-04-29 11:00 | 26.74858 | -55.33103 | 38939 ft | 536 kts | 44° |
| 2026-04-29 11:00 | 26.79507 | -55.27005 | 38941 ft | 534 kts | 45° |
| 2026-04-29 11:01 | 26.84327 | -55.20671 | 38939 ft | 535 kts | 44° |
| 2026-04-29 11:01 | 26.89154 | -55.14322 | 38938 ft | 535 kts | 44° |
| 2026-04-29 11:02 | 26.93944 | -55.08011 | 38935 ft | 535 kts | 44° |
| 2026-04-29 11:02 | 26.98764 | -55.01651 | 38938 ft | 534 kts | 45° |
| 2026-04-29 11:03 | 27.03664 | -54.95407 | 38940 ft | 532 kts | 41° |
| 2026-04-29 11:03 | 27.08803 | -54.89460 | 38935 ft | 531 kts | 40° |
| 2026-04-29 11:04 | 27.13959 | -54.83515 | 38948 ft | 531 kts | 40° |
| 2026-04-29 11:04 | 27.19075 | -54.77515 | 38936 ft | 532 kts | 41° |
| 2026-04-29 11:05 | 27.24170 | -54.71483 | 38933 ft | 532 kts | 41° |
| 2026-04-29 11:05 | 27.29256 | -54.65446 | 38930 ft | 532 kts | 41° |
| 2026-04-29 11:06 | 27.34314 | -54.59436 | 38936 ft | 532 kts | 41° |
| 2026-04-29 11:06 | 27.39395 | -54.53392 | 38936 ft | 531 kts | 41° |
| 2026-04-29 11:07 | 27.44468 | -54.47352 | 38923 ft | 531 kts | 41° |
| 2026-04-29 11:07 | 27.49550 | -54.41293 | 38927 ft | 532 kts | 41° |
| 2026-04-29 11:08 | 27.54620 | -54.35236 | 38922 ft | 529 kts | 41° |
| 2026-04-29 11:08 | 27.59658 | -54.29209 | 38922 ft | 528 kts | 41° |
| 2026-04-29 11:09 | 27.64694 | -54.23178 | 38919 ft | 528 kts | 41° |
| 2026-04-29 11:09 | 27.68884 | -54.18156 | 38938 ft | 530 kts | 41° |
| 2026-04-29 11:10 | 27.73892 | -54.12136 | 38916 ft | 522 kts | 41° |
| 2026-04-29 11:10 | 27.78851 | -54.06170 | 38916 ft | 520 kts | 41° |
| 2026-04-29 11:11 | 27.83805 | -54.00209 | 38918 ft | 520 kts | 41° |
| 2026-04-29 11:11 | 27.88754 | -53.94242 | 38905 ft | 520 kts | 40° |
| 2026-04-29 11:12 | 27.93677 | -53.88293 | 38906 ft | 517 kts | 40° |
| 2026-04-29 11:12 | 27.98583 | -53.82360 | 38906 ft | 516 kts | 40° |
| 2026-04-29 11:13 | 28.03488 | -53.76421 | 38922 ft | 516 kts | 40° |
| 2026-04-29 11:13 | 28.08393 | -53.70474 | 38910 ft | 518 kts | 41° |
| 2026-04-29 11:14 | 28.13334 | -53.64478 | 38911 ft | 524 kts | 41° |
| 2026-04-29 11:14 | 28.18302 | -53.58432 | 38909 ft | 524 kts | 41° |
| 2026-04-29 11:15 | 28.23255 | -53.52392 | 38910 ft | 521 kts | 41° |
| 2026-04-29 11:15 | 28.28162 | -53.46400 | 38907 ft | 518 kts | 40° |
| 2026-04-29 11:16 | 28.33061 | -53.40417 | 38911 ft | 517 kts | 40° |
| 2026-04-29 11:16 | 28.37958 | -53.34428 | 38927 ft | 517 kts | 40° |
| 2026-04-29 11:17 | 28.42855 | -53.28429 | 38906 ft | 518 kts | 40° |
| 2026-04-29 11:17 | 28.47752 | -53.22420 | 38905 ft | 519 kts | 40° |
| 2026-04-29 11:18 | 28.52656 | -53.16393 | 38905 ft | 519 kts | 40° |
| 2026-04-29 11:18 | 28.57530 | -53.10394 | 38903 ft | 520 kts | 40° |
| 2026-04-29 11:19 | 28.62473 | -53.04303 | 38898 ft | 521 kts | 40° |
| 2026-04-29 11:19 | 28.67354 | -52.98277 | 38894 ft | 521 kts | 41° |
| 2026-04-29 11:20 | 28.72265 | -52.92204 | 38920 ft | 521 kts | 40° |
| 2026-04-29 11:20 | 28.77178 | -52.86122 | 38901 ft | 522 kts | 40° |
| 2026-04-29 11:21 | 28.82095 | -52.80027 | 38899 ft | 523 kts | 41° |
| 2026-04-29 11:21 | 28.87014 | -52.73917 | 38892 ft | 523 kts | 41° |
| 2026-04-29 11:22 | 28.91930 | -52.67802 | 38895 ft | 523 kts | 41° |
| 2026-04-29 11:22 | 28.96854 | -52.61670 | 38898 ft | 524 kts | 41° |
| 2026-04-29 11:23 | 29.01780 | -52.55525 | 38894 ft | 524 kts | 41° |
| 2026-04-29 11:23 | 29.06698 | -52.49380 | 38886 ft | 525 kts | 41° |
| 2026-04-29 11:24 | 29.11629 | -52.43210 | 38885 ft | 526 kts | 41° |
| 2026-04-29 11:24 | 29.16567 | -52.37023 | 38883 ft | 526 kts | 41° |
| 2026-04-29 11:25 | 29.21496 | -52.30835 | 38896 ft | 526 kts | 41° |
| 2026-04-29 11:25 | 29.26431 | -52.24631 | 38886 ft | 528 kts | 41° |
| 2026-04-29 11:26 | 29.33846 | -52.15293 | 38884 ft | 528 kts | 41° |
| 2026-04-29 11:26 | 29.38789 | -52.09054 | 38889 ft | 529 kts | 41° |
| 2026-04-29 11:27 | 29.43696 | -52.02853 | 38880 ft | 529 kts | 41° |
| 2026-04-29 11:27 | 29.48645 | -51.96590 | 38881 ft | 530 kts | 41° |
| 2026-04-29 11:28 | 29.53597 | -51.90311 | 38881 ft | 530 kts | 41° |
| 2026-04-29 11:28 | 29.58548 | -51.84024 | 38876 ft | 531 kts | 41° |
| 2026-04-29 11:29 | 29.63498 | -51.77729 | 38871 ft | 532 kts | 41° |
| 2026-04-29 11:29 | 29.68455 | -51.71413 | 38873 ft | 532 kts | 41° |
| 2026-04-29 11:30 | 29.73411 | -51.65090 | 38873 ft | 532 kts | 41° |
| 2026-04-29 11:30 | 29.78363 | -51.58761 | 38873 ft | 532 kts | 41° |
| 2026-04-29 11:31 | 29.83309 | -51.52429 | 38878 ft | 531 kts | 41° |
| 2026-04-29 11:31 | 29.88239 | -51.46107 | 38874 ft | 531 kts | 41° |
| 2026-04-29 11:32 | 29.93182 | -51.39763 | 38873 ft | 532 kts | 41° |
| 2026-04-29 11:32 | 29.98123 | -51.33408 | 38867 ft | 533 kts | 41° |
| 2026-04-29 11:33 | 30.03065 | -51.27040 | 38873 ft | 532 kts | 41° |
| 2026-04-29 11:33 | 30.08007 | -51.20664 | 38866 ft | 533 kts | 42° |
| 2026-04-29 11:34 | 30.12952 | -51.14273 | 38866 ft | 533 kts | 42° |
| 2026-04-29 11:34 | 30.17894 | -51.07874 | 38873 ft | 534 kts | 42° |
| 2026-04-29 11:35 | 30.22847 | -51.01454 | 38862 ft | 536 kts | 42° |
| 2026-04-29 11:35 | 30.27801 | -50.95019 | 38865 ft | 536 kts | 42° |
| 2026-04-29 11:36 | 30.32758 | -50.88569 | 38874 ft | 536 kts | 42° |
| 2026-04-29 11:36 | 30.37721 | -50.82103 | 38864 ft | 538 kts | 42° |
| 2026-04-29 11:37 | 30.42685 | -50.75623 | 38859 ft | 538 kts | 42° |
| 2026-04-29 11:37 | 30.47647 | -50.69134 | 38872 ft | 538 kts | 42° |
| 2026-04-29 11:38 | 30.52621 | -50.62622 | 38850 ft | 540 kts | 42° |
| 2026-04-29 11:38 | 30.57597 | -50.56095 | 38859 ft | 540 kts | 42° |
| 2026-04-29 11:39 | 30.62571 | -50.49557 | 38872 ft | 540 kts | 43° |
| 2026-04-29 11:39 | 30.67555 | -50.42998 | 38855 ft | 542 kts | 43° |
| 2026-04-29 11:40 | 30.72549 | -50.36414 | 38855 ft | 543 kts | 43° |
| 2026-04-29 11:40 | 30.77539 | -50.29824 | 38869 ft | 543 kts | 43° |
| 2026-04-29 11:41 | 30.82534 | -50.23215 | 38856 ft | 545 kts | 43° |
| 2026-04-29 11:41 | 30.87532 | -50.16592 | 38854 ft | 545 kts | 44° |
| 2026-04-29 11:42 | 30.92542 | -50.09943 | 38857 ft | 547 kts | 44° |
| 2026-04-29 11:42 | 30.97562 | -50.03268 | 38852 ft | 548 kts | 44° |
| 2026-04-29 11:43 | 31.02197 | -49.96159 | 38844 ft | 553 kts | 52° |
| 2026-04-29 11:43 | 31.06469 | -49.88747 | 38862 ft | 555 kts | 53° |
| 2026-04-29 11:44 | 31.10750 | -49.81171 | 38854 ft | 556 kts | 54° |
| 2026-04-29 11:44 | 31.15008 | -49.73627 | 38842 ft | 556 kts | 53° |
| 2026-04-29 11:45 | 31.19244 | -49.66135 | 38857 ft | 557 kts | 53° |
| 2026-04-29 11:45 | 31.23514 | -49.58578 | 38862 ft | 557 kts | 53° |
| 2026-04-29 11:46 | 31.27781 | -49.51011 | 38844 ft | 557 kts | 53° |
| 2026-04-29 11:46 | 31.32036 | -49.43451 | 38876 ft | 556 kts | 54° |
| 2026-04-29 11:47 | 31.36311 | -49.35839 | 38871 ft | 557 kts | 54° |
| 2026-04-29 11:47 | 31.40528 | -49.28317 | 38876 ft | 556 kts | 54° |
| 2026-04-29 11:48 | 31.44765 | -49.20743 | 38881 ft | 555 kts | 54° |
| 2026-04-29 11:48 | 31.48997 | -49.13166 | 38881 ft | 556 kts | 54° |
| 2026-04-29 11:49 | 31.53226 | -49.05578 | 38891 ft | 556 kts | 54° |
| 2026-04-29 11:49 | 31.57445 | -48.97992 | 38893 ft | 554 kts | 55° |
| 2026-04-29 11:50 | 31.61652 | -48.90414 | 38898 ft | 554 kts | 55° |
| 2026-04-29 11:50 | 31.65849 | -48.82837 | 38898 ft | 554 kts | 55° |
| 2026-04-29 11:51 | 31.70047 | -48.75245 | 38906 ft | 554 kts | 55° |
| 2026-04-29 11:51 | 31.74235 | -48.67655 | 38904 ft | 553 kts | 55° |
| 2026-04-29 11:52 | 31.78416 | -48.60064 | 38903 ft | 552 kts | 55° |
| 2026-04-29 11:52 | 31.82578 | -48.52491 | 38920 ft | 551 kts | 55° |
| 2026-04-29 11:53 | 31.86733 | -48.44919 | 38919 ft | 551 kts | 55° |
| 2026-04-29 11:53 | 31.90878 | -48.37346 | 38922 ft | 549 kts | 56° |
| 2026-04-29 11:54 | 31.94999 | -48.29804 | 38931 ft | 547 kts | 56° |
| 2026-04-29 11:54 | 31.98419 | -48.23534 | 38929 ft | 547 kts | 56° |
| 2026-04-29 11:55 | 32.02523 | -48.15995 | 38929 ft | 546 kts | 56° |
| 2026-04-29 11:55 | 32.06614 | -48.08467 | 38938 ft | 545 kts | 56° |
| 2026-04-29 11:56 | 32.10699 | -48.00934 | 38926 ft | 545 kts | 56° |
| 2026-04-29 11:56 | 32.14781 | -47.93391 | 38945 ft | 546 kts | 57° |
| 2026-04-29 11:57 | 32.18859 | -47.85842 | 38951 ft | 546 kts | 57° |
| 2026-04-29 11:57 | 32.22938 | -47.78275 | 38952 ft | 546 kts | 57° |
| 2026-04-29 11:58 | 32.27015 | -47.70695 | 38973 ft | 547 kts | 57° |
| 2026-04-29 11:58 | 32.31093 | -47.63100 | 38968 ft | 547 kts | 57° |
| 2026-04-29 11:59 | 32.35166 | -47.55497 | 38961 ft | 548 kts | 57° |
| 2026-04-29 11:59 | 32.39243 | -47.47874 | 38970 ft | 549 kts | 57° |
| 2026-04-29 12:00 | 32.43318 | -47.40237 | 38975 ft | 549 kts | 57° |
| 2026-04-29 12:00 | 32.47391 | -47.32587 | 38974 ft | 550 kts | 57° |
| 2026-04-29 12:01 | 32.51468 | -47.24918 | 38981 ft | 550 kts | 58° |
| 2026-04-29 12:01 | 32.55538 | -47.17243 | 38972 ft | 550 kts | 57° |
| 2026-04-29 12:02 | 32.59608 | -47.09552 | 38993 ft | 552 kts | 57° |
| 2026-04-29 12:02 | 32.63688 | -47.01829 | 39001 ft | 553 kts | 58° |
| 2026-04-29 12:03 | 32.67771 | -46.94082 | 38994 ft | 554 kts | 57° |
| 2026-04-29 12:03 | 32.71853 | -46.86321 | 39020 ft | 554 kts | 58° |
| 2026-04-29 12:04 | 32.75905 | -46.78603 | 39012 ft | 555 kts | 58° |
| 2026-04-29 12:04 | 32.80009 | -46.70767 | 39020 ft | 555 kts | 58° |
| 2026-04-29 12:05 | 32.84082 | -46.62975 | 39026 ft | 555 kts | 58° |
| 2026-04-29 12:05 | 32.88146 | -46.55183 | 39012 ft | 554 kts | 58° |
| 2026-04-29 12:06 | 32.92170 | -46.47452 | 39031 ft | 553 kts | 58° |
| 2026-04-29 12:06 | 32.96210 | -46.39673 | 39032 ft | 552 kts | 58° |
| 2026-04-29 12:07 | 33.00242 | -46.31894 | 39029 ft | 552 kts | 58° |
| 2026-04-29 12:07 | 33.04266 | -46.24114 | 39043 ft | 551 kts | 58° |
| 2026-04-29 12:08 | 33.08285 | -46.16327 | 39025 ft | 551 kts | 58° |
| 2026-04-29 12:08 | 33.12299 | -46.08533 | 39037 ft | 551 kts | 58° |
| 2026-04-29 12:09 | 33.16300 | -46.00748 | 39040 ft | 551 kts | 58° |
| 2026-04-29 12:09 | 33.20298 | -45.92953 | 39034 ft | 550 kts | 58° |
| 2026-04-29 12:10 | 33.24288 | -45.85157 | 39056 ft | 550 kts | 58° |
| 2026-04-29 12:10 | 33.28267 | -45.77364 | 39036 ft | 549 kts | 58° |
| 2026-04-29 12:11 | 33.32235 | -45.69577 | 39045 ft | 548 kts | 58° |
| 2026-04-29 12:11 | 33.36195 | -45.61790 | 39051 ft | 548 kts | 58° |
| 2026-04-29 12:12 | 33.40144 | -45.54006 | 39050 ft | 547 kts | 58° |
| 2026-04-29 12:12 | 33.44088 | -45.46218 | 39058 ft | 547 kts | 58° |
| 2026-04-29 12:13 | 33.48026 | -45.38423 | 39053 ft | 547 kts | 58° |
| 2026-04-29 12:13 | 33.51962 | -45.30617 | 39062 ft | 547 kts | 58° |
| 2026-04-29 12:14 | 33.55866 | -45.22856 | 39066 ft | 547 kts | 58° |
| 2026-04-29 12:14 | 33.59795 | -45.15028 | 39065 ft | 548 kts | 58° |
| 2026-04-29 12:15 | 33.63720 | -45.07192 | 39070 ft | 548 kts | 58° |
| 2026-04-29 12:15 | 33.67636 | -44.99358 | 39072 ft | 548 kts | 58° |
| 2026-04-29 12:16 | 33.71551 | -44.91507 | 39073 ft | 548 kts | 58° |
| 2026-04-29 12:16 | 33.75461 | -44.83651 | 39077 ft | 548 kts | 58° |
| 2026-04-29 12:17 | 33.79366 | -44.75787 | 39077 ft | 548 kts | 58° |
| 2026-04-29 12:17 | 33.83265 | -44.67918 | 39076 ft | 548 kts | 58° |
| 2026-04-29 12:18 | 33.87158 | -44.60043 | 39085 ft | 548 kts | 58° |
| 2026-04-29 12:18 | 33.91047 | -44.52160 | 39080 ft | 548 kts | 58° |
| 2026-04-29 12:19 | 33.94932 | -44.44266 | 39085 ft | 548 kts | 58° |
| 2026-04-29 12:19 | 33.98807 | -44.36375 | 39084 ft | 548 kts | 58° |
| 2026-04-29 12:20 | 34.02680 | -44.28472 | 39086 ft | 547 kts | 58° |
| 2026-04-29 12:20 | 34.06548 | -44.20561 | 39093 ft | 547 kts | 57° |
| 2026-04-29 12:21 | 34.10412 | -44.12642 | 39093 ft | 548 kts | 57° |
| 2026-04-29 12:21 | 34.14272 | -44.04711 | 39087 ft | 548 kts | 57° |
| 2026-04-29 12:22 | 34.18127 | -43.96774 | 39096 ft | 548 kts | 57° |
| 2026-04-29 12:22 | 34.21975 | -43.88834 | 39085 ft | 548 kts | 57° |
| 2026-04-29 12:23 | 34.25818 | -43.80886 | 39087 ft | 548 kts | 57° |
| 2026-04-29 12:23 | 34.29627 | -43.72989 | 39088 ft | 548 kts | 57° |
| 2026-04-29 12:24 | 34.33458 | -43.65031 | 39090 ft | 547 kts | 57° |
| 2026-04-29 12:24 | 34.37285 | -43.57062 | 39102 ft | 548 kts | 57° |
| 2026-04-29 12:25 | 34.41111 | -43.49078 | 39101 ft | 548 kts | 57° |
| 2026-04-29 12:26 | 34.46841 | -43.37084 | 39108 ft | 548 kts | 57° |
| 2026-04-29 12:26 | 34.50652 | -43.29087 | 39108 ft | 548 kts | 57° |
| 2026-04-29 12:27 | 34.54463 | -43.21070 | 39106 ft | 548 kts | 57° |
| 2026-04-29 12:27 | 34.58268 | -43.13046 | 39110 ft | 549 kts | 57° |
| 2026-04-29 12:28 | 34.62068 | -43.05015 | 39110 ft | 549 kts | 57° |
| 2026-04-29 12:28 | 34.65862 | -42.96978 | 39111 ft | 548 kts | 57° |
| 2026-04-29 12:29 | 34.69644 | -42.88949 | 39112 ft | 548 kts | 57° |
| 2026-04-29 12:29 | 34.73425 | -42.80903 | 39123 ft | 548 kts | 57° |
| 2026-04-29 12:30 | 34.77205 | -42.72842 | 39113 ft | 549 kts | 57° |
| 2026-04-29 12:30 | 34.80985 | -42.64761 | 39112 ft | 550 kts | 57° |
| 2026-04-29 12:31 | 34.84760 | -42.56672 | 39115 ft | 550 kts | 57° |
| 2026-04-29 12:31 | 34.88509 | -42.48618 | 39112 ft | 550 kts | 57° |
| 2026-04-29 12:32 | 34.92278 | -42.40504 | 39122 ft | 550 kts | 57° |
| 2026-04-29 12:32 | 34.96038 | -42.32390 | 39116 ft | 550 kts | 56° |
| 2026-04-29 12:33 | 34.99794 | -42.24265 | 39114 ft | 550 kts | 57° |
| 2026-04-29 12:33 | 35.03545 | -42.16132 | 39113 ft | 550 kts | 56° |
| 2026-04-29 12:34 | 35.07289 | -42.07996 | 39110 ft | 550 kts | 56° |
| 2026-04-29 12:34 | 35.11027 | -41.99853 | 39110 ft | 550 kts | 56° |
| 2026-04-29 12:35 | 35.14754 | -41.91712 | 39114 ft | 548 kts | 56° |
| 2026-04-29 12:35 | 35.18461 | -41.83596 | 39110 ft | 546 kts | 56° |
| 2026-04-29 12:36 | 35.22161 | -41.75479 | 39114 ft | 546 kts | 56° |
| 2026-04-29 12:36 | 35.25844 | -41.67380 | 39110 ft | 544 kts | 56° |
| 2026-04-29 12:37 | 35.29517 | -41.59283 | 39111 ft | 544 kts | 56° |
| 2026-04-29 12:37 | 35.33184 | -41.51181 | 39111 ft | 544 kts | 56° |
| 2026-04-29 12:38 | 35.36844 | -41.43075 | 39111 ft | 544 kts | 56° |
| 2026-04-29 12:38 | 35.40505 | -41.34947 | 39110 ft | 545 kts | 56° |
| 2026-04-29 12:39 | 35.44140 | -41.26857 | 39111 ft | 545 kts | 56° |
| 2026-04-29 12:39 | 35.47795 | -41.18704 | 39110 ft | 545 kts | 56° |
| 2026-04-29 12:40 | 35.51443 | -41.10547 | 39109 ft | 546 kts | 56° |
| 2026-04-29 12:40 | 35.55088 | -41.02375 | 39110 ft | 546 kts | 56° |
| 2026-04-29 12:41 | 35.58728 | -40.94195 | 39110 ft | 546 kts | 56° |
| 2026-04-29 12:41 | 35.62362 | -40.86008 | 39108 ft | 545 kts | 56° |
| 2026-04-29 12:42 | 35.65986 | -40.77826 | 39107 ft | 545 kts | 56° |
| 2026-04-29 12:42 | 35.69603 | -40.69638 | 39102 ft | 545 kts | 56° |
| 2026-04-29 12:43 | 35.73210 | -40.61452 | 39102 ft | 543 kts | 56° |
| 2026-04-29 12:43 | 35.76803 | -40.53280 | 39102 ft | 542 kts | 56° |
| 2026-04-29 12:44 | 35.79781 | -40.46490 | 39113 ft | 542 kts | 56° |
| 2026-04-29 12:44 | 35.83357 | -40.38318 | 39099 ft | 541 kts | 56° |
| 2026-04-29 12:45 | 35.86922 | -40.30152 | 39100 ft | 541 kts | 56° |
| 2026-04-29 12:45 | 35.90481 | -40.21981 | 39097 ft | 541 kts | 55° |
| 2026-04-29 12:46 | 35.94030 | -40.13811 | 39097 ft | 540 kts | 55° |
| 2026-04-29 12:46 | 35.97572 | -40.05641 | 39111 ft | 540 kts | 55° |
| 2026-04-29 12:47 | 36.01559 | -39.97916 | 39100 ft | 527 kts | 43° |
| 2026-04-29 12:47 | 36.06225 | -39.90977 | 39098 ft | 524 kts | 41° |
| 2026-04-29 12:48 | 36.10979 | -39.84163 | 39100 ft | 524 kts | 41° |
| 2026-04-29 12:48 | 36.15741 | -39.77341 | 39106 ft | 523 kts | 41° |
| 2026-04-29 12:49 | 36.20476 | -39.70510 | 39098 ft | 522 kts | 41° |
| 2026-04-29 12:49 | 36.25199 | -39.63668 | 39096 ft | 523 kts | 41° |
| 2026-04-29 12:50 | 36.29918 | -39.56815 | 39114 ft | 523 kts | 41° |
| 2026-04-29 12:50 | 36.34620 | -39.49970 | 39106 ft | 520 kts | 41° |
| 2026-04-29 12:51 | 36.39297 | -39.43148 | 39094 ft | 518 kts | 41° |
| 2026-04-29 12:51 | 36.43968 | -39.36328 | 39091 ft | 518 kts | 41° |
| 2026-04-29 12:52 | 36.48631 | -39.29504 | 39084 ft | 517 kts | 41° |
| 2026-04-29 12:52 | 36.53279 | -39.22686 | 39083 ft | 517 kts | 41° |
| 2026-04-29 12:53 | 36.57917 | -39.15870 | 39082 ft | 517 kts | 41° |
| 2026-04-29 12:53 | 36.62557 | -39.09038 | 39093 ft | 516 kts | 41° |
| 2026-04-29 12:54 | 36.67155 | -39.02251 | 39085 ft | 515 kts | 41° |
| 2026-04-29 12:54 | 36.71775 | -38.95419 | 39086 ft | 515 kts | 41° |
| 2026-04-29 12:55 | 36.76392 | -38.88578 | 39083 ft | 515 kts | 41° |
| 2026-04-29 12:55 | 36.81000 | -38.81737 | 39088 ft | 515 kts | 40° |
| 2026-04-29 12:56 | 36.85603 | -38.74887 | 39084 ft | 515 kts | 40° |
| 2026-04-29 12:56 | 36.90202 | -38.68030 | 39084 ft | 515 kts | 41° |
| 2026-04-29 12:57 | 36.94795 | -38.61167 | 39078 ft | 514 kts | 40° |
| 2026-04-29 12:57 | 36.99372 | -38.54313 | 39080 ft | 513 kts | 40° |
| 2026-04-29 12:58 | 37.03944 | -38.47455 | 39083 ft | 513 kts | 40° |
| 2026-04-29 12:58 | 37.08513 | -38.40588 | 39086 ft | 513 kts | 40° |
| 2026-04-29 12:59 | 37.13070 | -38.33721 | 39072 ft | 512 kts | 40° |
| 2026-04-29 12:59 | 37.17618 | -38.26856 | 39072 ft | 512 kts | 40° |
| 2026-04-29 13:00 | 37.22160 | -38.19985 | 39075 ft | 512 kts | 40° |
| 2026-04-29 13:00 | 37.26696 | -38.13109 | 39076 ft | 511 kts | 40° |
| 2026-04-29 13:01 | 37.31219 | -38.06238 | 39071 ft | 510 kts | 40° |
| 2026-04-29 13:01 | 37.35738 | -37.99361 | 39065 ft | 510 kts | 40° |
| 2026-04-29 13:02 | 37.40248 | -37.92482 | 39063 ft | 510 kts | 40° |
| 2026-04-29 13:02 | 37.44756 | -37.85590 | 39063 ft | 510 kts | 40° |
| 2026-04-29 13:03 | 37.49257 | -37.78696 | 39062 ft | 510 kts | 40° |
| 2026-04-29 13:03 | 37.53755 | -37.71792 | 39061 ft | 510 kts | 40° |
| 2026-04-29 13:04 | 37.58210 | -37.64936 | 39059 ft | 507 kts | 40° |
| 2026-04-29 13:04 | 37.62674 | -37.58053 | 39056 ft | 507 kts | 40° |
| 2026-04-29 13:05 | 37.67128 | -37.51175 | 39080 ft | 507 kts | 40° |
| 2026-04-29 13:05 | 37.71580 | -37.44286 | 39062 ft | 505 kts | 40° |
| 2026-04-29 13:06 | 37.76011 | -37.37411 | 39054 ft | 504 kts | 40° |
| 2026-04-29 13:06 | 37.80436 | -37.30536 | 39050 ft | 504 kts | 40° |
| 2026-04-29 13:07 | 37.84857 | -37.23652 | 39050 ft | 504 kts | 40° |
| 2026-04-29 13:07 | 37.89269 | -37.16763 | 39045 ft | 503 kts | 40° |
| 2026-04-29 13:08 | 37.93670 | -37.09877 | 39042 ft | 503 kts | 40° |
| 2026-04-29 13:08 | 37.98066 | -37.02986 | 39038 ft | 503 kts | 40° |
| 2026-04-29 13:09 | 38.02459 | -36.96086 | 39050 ft | 503 kts | 40° |
| 2026-04-29 13:09 | 38.06845 | -36.89182 | 39039 ft | 502 kts | 40° |
| 2026-04-29 13:10 | 38.11226 | -36.82270 | 39037 ft | 502 kts | 40° |
| 2026-04-29 13:10 | 38.15607 | -36.75346 | 39037 ft | 503 kts | 40° |
| 2026-04-29 13:11 | 38.19990 | -36.68404 | 39033 ft | 504 kts | 40° |
| 2026-04-29 13:11 | 38.24368 | -36.61453 | 39032 ft | 504 kts | 40° |
| 2026-04-29 13:12 | 38.28747 | -36.54484 | 39032 ft | 504 kts | 40° |
| 2026-04-29 13:12 | 38.33123 | -36.47506 | 39031 ft | 504 kts | 40° |
| 2026-04-29 13:13 | 38.37494 | -36.40521 | 39025 ft | 504 kts | 40° |
| 2026-04-29 13:13 | 38.41862 | -36.33526 | 39029 ft | 504 kts | 40° |
| 2026-04-29 13:14 | 38.46228 | -36.26520 | 39027 ft | 504 kts | 40° |
| 2026-04-29 13:14 | 38.50588 | -36.19507 | 39024 ft | 504 kts | 41° |
| 2026-04-29 13:15 | 38.54942 | -36.12488 | 39018 ft | 504 kts | 41° |
| 2026-04-29 13:15 | 38.59291 | -36.05463 | 39012 ft | 504 kts | 41° |
| 2026-04-29 13:16 | 38.63634 | -35.98433 | 39025 ft | 504 kts | 41° |
| 2026-04-29 13:16 | 38.67935 | -35.91454 | 39011 ft | 503 kts | 41° |
| 2026-04-29 13:17 | 38.72262 | -35.84420 | 39006 ft | 503 kts | 42° |
| 2026-04-29 13:17 | 38.76584 | -35.77378 | 39008 ft | 503 kts | 42° |
| 2026-04-29 13:18 | 38.80902 | -35.70327 | 39010 ft | 502 kts | 43° |
| 2026-04-29 13:18 | 38.85213 | -35.63272 | 39000 ft | 502 kts | 43° |
| 2026-04-29 13:19 | 38.89520 | -35.56208 | 38996 ft | 502 kts | 43° |
| 2026-04-29 13:19 | 38.93823 | -35.49135 | 39018 ft | 503 kts | 43° |
| 2026-04-29 13:20 | 38.98121 | -35.42054 | 38995 ft | 502 kts | 43° |
| 2026-04-29 13:20 | 39.02410 | -35.34972 | 38990 ft | 502 kts | 44° |
| 2026-04-29 13:21 | 39.06699 | -35.27874 | 38986 ft | 502 kts | 44° |
| 2026-04-29 13:21 | 39.10986 | -35.20766 | 38980 ft | 503 kts | 44° |
| 2026-04-29 13:22 | 39.15270 | -35.13645 | 38974 ft | 503 kts | 44° |
| 2026-04-29 13:22 | 39.19550 | -35.06515 | 38975 ft | 503 kts | 44° |
| 2026-04-29 13:23 | 39.23825 | -34.99377 | 38971 ft | 503 kts | 44° |
| 2026-04-29 13:23 | 39.28097 | -34.92230 | 38966 ft | 503 kts | 45° |
| 2026-04-29 13:24 | 39.32365 | -34.85075 | 38968 ft | 503 kts | 45° |
| 2026-04-29 13:24 | 39.36626 | -34.77912 | 38960 ft | 503 kts | 45° |
| 2026-04-29 13:25 | 39.40882 | -34.70742 | 38959 ft | 502 kts | 46° |
| 2026-04-29 13:25 | 39.47247 | -34.59988 | 38952 ft | 501 kts | 47° |
| 2026-04-29 13:26 | 39.51474 | -34.52826 | 38944 ft | 501 kts | 47° |
| 2026-04-29 13:26 | 39.55674 | -34.45694 | 38942 ft | 501 kts | 47° |
| 2026-04-29 13:27 | 39.59900 | -34.38503 | 38941 ft | 502 kts | 47° |
| 2026-04-29 13:27 | 39.64124 | -34.31299 | 38936 ft | 502 kts | 47° |
| 2026-04-29 13:28 | 39.68347 | -34.24081 | 38933 ft | 503 kts | 48° |
| 2026-04-29 13:28 | 39.72576 | -34.16834 | 38928 ft | 504 kts | 48° |
| 2026-04-29 13:29 | 39.76804 | -34.09572 | 38924 ft | 504 kts | 48° |
| 2026-04-29 13:29 | 39.81027 | -34.02302 | 38919 ft | 504 kts | 48° |
| 2026-04-29 13:30 | 39.85242 | -33.95029 | 38921 ft | 504 kts | 48° |
| 2026-04-29 13:30 | 39.89457 | -33.87740 | 38931 ft | 504 kts | 48° |
| 2026-04-29 13:31 | 39.92954 | -33.81680 | 38914 ft | 503 kts | 49° |
| 2026-04-29 13:31 | 39.97156 | -33.74382 | 38913 ft | 503 kts | 49° |
| 2026-04-29 13:32 | 40.01353 | -33.67076 | 38912 ft | 503 kts | 49° |
| 2026-04-29 13:32 | 40.05541 | -33.59770 | 38909 ft | 501 kts | 50° |
| 2026-04-29 13:33 | 40.09704 | -33.52488 | 38899 ft | 500 kts | 50° |
| 2026-04-29 13:33 | 40.13858 | -33.45206 | 38900 ft | 500 kts | 50° |
| 2026-04-29 13:34 | 40.18007 | -33.37918 | 38894 ft | 499 kts | 50° |
| 2026-04-29 13:34 | 40.22150 | -33.30623 | 38891 ft | 499 kts | 50° |
| 2026-04-29 13:35 | 40.26286 | -33.23322 | 38887 ft | 499 kts | 50° |
| 2026-04-29 13:35 | 40.30419 | -33.16010 | 38888 ft | 500 kts | 51° |
| 2026-04-29 13:36 | 40.34545 | -33.08693 | 38892 ft | 499 kts | 51° |
| 2026-04-29 13:36 | 40.38643 | -33.01408 | 38888 ft | 499 kts | 51° |
| 2026-04-29 13:37 | 40.42765 | -32.94065 | 38889 ft | 500 kts | 51° |
| 2026-04-29 13:37 | 40.46890 | -32.86699 | 38867 ft | 501 kts | 51° |
| 2026-04-29 13:38 | 40.51007 | -32.79328 | 38868 ft | 501 kts | 51° |
| 2026-04-29 13:38 | 40.55125 | -32.71938 | 38870 ft | 501 kts | 51° |
| 2026-04-29 13:39 | 40.59244 | -32.64530 | 38863 ft | 502 kts | 51° |
| 2026-04-29 13:39 | 40.63360 | -32.57110 | 38856 ft | 502 kts | 52° |
| 2026-04-29 13:40 | 40.67467 | -32.49687 | 38856 ft | 500 kts | 52° |
| 2026-04-29 13:40 | 40.71556 | -32.42279 | 38856 ft | 499 kts | 52° |
| 2026-04-29 13:41 | 40.75635 | -32.34870 | 38844 ft | 499 kts | 52° |
| 2026-04-29 13:41 | 40.79710 | -32.27455 | 38848 ft | 499 kts | 53° |
| 2026-04-29 13:42 | 40.83776 | -32.20036 | 38843 ft | 498 kts | 53° |
| 2026-04-29 13:42 | 40.87832 | -32.12616 | 38841 ft | 498 kts | 53° |
| 2026-04-29 13:43 | 40.91884 | -32.05188 | 38838 ft | 498 kts | 53° |
| 2026-04-29 13:43 | 40.95925 | -31.97761 | 38833 ft | 497 kts | 53° |
| 2026-04-29 13:44 | 40.99959 | -31.90330 | 38824 ft | 497 kts | 53° |
| 2026-04-29 13:44 | 41.03988 | -31.82889 | 38824 ft | 497 kts | 53° |
| 2026-04-29 13:45 | 41.08008 | -31.75448 | 38822 ft | 497 kts | 53° |
| 2026-04-29 13:45 | 41.12027 | -31.67990 | 38822 ft | 497 kts | 54° |
| 2026-04-29 13:46 | 41.16040 | -31.60526 | 38819 ft | 497 kts | 54° |
| 2026-04-29 13:46 | 41.20037 | -31.53073 | 38816 ft | 495 kts | 54° |
| 2026-04-29 13:47 | 41.24020 | -31.45628 | 38815 ft | 494 kts | 54° |
| 2026-04-29 13:47 | 41.27974 | -31.38221 | 38821 ft | 494 kts | 54° |
| 2026-04-29 13:48 | 41.31946 | -31.30761 | 38807 ft | 494 kts | 55° |
| 2026-04-29 13:48 | 41.35911 | -31.23296 | 38802 ft | 494 kts | 55° |
| 2026-04-29 13:49 | 41.39867 | -31.15829 | 38802 ft | 494 kts | 55° |
| 2026-04-29 13:49 | 41.43809 | -31.08372 | 38802 ft | 489 kts | 56° |
| 2026-04-29 13:50 | 41.47701 | -31.00991 | 38798 ft | 485 kts | 56° |
| 2026-04-29 13:50 | 41.51603 | -30.93570 | 38790 ft | 485 kts | 56° |
| 2026-04-29 13:51 | 41.55446 | -30.86245 | 38785 ft | 485 kts | 56° |
| 2026-04-29 13:51 | 41.59315 | -30.78854 | 38791 ft | 486 kts | 56° |
| 2026-04-29 13:52 | 41.63181 | -30.71451 | 38789 ft | 486 kts | 56° |
| 2026-04-29 13:52 | 41.67041 | -30.64041 | 38778 ft | 486 kts | 56° |
| 2026-04-29 13:53 | 41.70913 | -30.56590 | 38786 ft | 488 kts | 56° |
| 2026-04-29 13:53 | 41.74783 | -30.49125 | 38786 ft | 488 kts | 56° |
| 2026-04-29 13:54 | 41.78652 | -30.41643 | 38775 ft | 488 kts | 56° |
| 2026-04-29 13:54 | 41.82525 | -30.34135 | 38781 ft | 491 kts | 56° |
| 2026-04-29 13:55 | 41.86409 | -30.26587 | 38783 ft | 492 kts | 56° |
| 2026-04-29 13:55 | 41.90291 | -30.19024 | 38781 ft | 492 kts | 56° |
| 2026-04-29 13:56 | 41.94169 | -30.11453 | 38778 ft | 492 kts | 57° |
| 2026-04-29 13:56 | 41.98040 | -30.03874 | 38776 ft | 492 kts | 57° |
| 2026-04-29 13:57 | 42.02244 | -29.96613 | 38781 ft | 493 kts | 51° |
| 2026-04-29 13:57 | 42.06734 | -29.89640 | 38776 ft | 493 kts | 50° |
| 2026-04-29 13:58 | 42.11254 | -29.82707 | 38777 ft | 492 kts | 50° |
| 2026-04-29 13:58 | 42.15732 | -29.75822 | 38780 ft | 492 kts | 50° |
| 2026-04-29 13:59 | 42.20230 | -29.68873 | 38785 ft | 492 kts | 51° |
| 2026-04-29 13:59 | 42.24716 | -29.61922 | 38783 ft | 490 kts | 51° |
| 2026-04-29 14:00 | 42.29190 | -29.54969 | 38786 ft | 490 kts | 51° |
| 2026-04-29 14:00 | 42.33660 | -29.48007 | 38787 ft | 490 kts | 51° |
| 2026-04-29 14:01 | 42.38126 | -29.41035 | 38783 ft | 490 kts | 51° |
| 2026-04-29 14:01 | 42.42588 | -29.34055 | 38783 ft | 490 kts | 51° |
| 2026-04-29 14:02 | 42.47041 | -29.27071 | 38781 ft | 490 kts | 51° |
| 2026-04-29 14:02 | 42.51490 | -29.20077 | 38782 ft | 489 kts | 52° |
| 2026-04-29 14:03 | 42.55927 | -29.13085 | 38779 ft | 489 kts | 52° |
| 2026-04-29 14:03 | 42.60356 | -29.06089 | 38779 ft | 489 kts | 52° |
| 2026-04-29 14:04 | 42.64782 | -28.99082 | 38775 ft | 488 kts | 52° |
| 2026-04-29 14:04 | 42.69186 | -28.92094 | 38779 ft | 485 kts | 52° |
| 2026-04-29 14:05 | 42.73569 | -28.85120 | 38783 ft | 485 kts | 52° |
| 2026-04-29 14:05 | 42.77946 | -28.78139 | 38782 ft | 485 kts | 52° |
| 2026-04-29 14:06 | 42.82315 | -28.71155 | 38781 ft | 483 kts | 52° |
| 2026-04-29 14:06 | 42.86664 | -28.64187 | 38785 ft | 482 kts | 52° |
| 2026-04-29 14:07 | 42.90974 | -28.57264 | 38788 ft | 482 kts | 52° |
| 2026-04-29 14:07 | 42.95308 | -28.50287 | 38783 ft | 482 kts | 53° |
| 2026-04-29 14:08 | 42.99634 | -28.43305 | 38792 ft | 481 kts | 53° |
| 2026-04-29 14:08 | 43.03952 | -28.36320 | 38798 ft | 481 kts | 53° |
| 2026-04-29 14:09 | 43.07571 | -28.30453 | 38798 ft | 481 kts | 53° |
| 2026-04-29 14:09 | 43.12576 | -28.22319 | 38803 ft | 480 kts | 53° |
| 2026-04-29 14:10 | 43.16875 | -28.15314 | 38813 ft | 480 kts | 53° |
| 2026-04-29 14:10 | 43.21167 | -28.08304 | 38811 ft | 480 kts | 53° |
| 2026-04-29 14:11 | 43.25458 | -28.01279 | 38814 ft | 480 kts | 53° |
| 2026-04-29 14:11 | 43.29744 | -27.94245 | 38821 ft | 480 kts | 53° |
| 2026-04-29 14:12 | 43.34023 | -27.87205 | 38830 ft | 480 kts | 53° |
| 2026-04-29 14:12 | 43.38302 | -27.80149 | 38829 ft | 480 kts | 53° |
| 2026-04-29 14:13 | 43.42579 | -27.73079 | 38833 ft | 481 kts | 53° |
| 2026-04-29 14:13 | 43.46846 | -27.66008 | 38837 ft | 481 kts | 53° |
| 2026-04-29 14:14 | 43.51113 | -27.58919 | 38845 ft | 481 kts | 53° |
| 2026-04-29 14:14 | 43.55375 | -27.51823 | 38843 ft | 481 kts | 53° |
| 2026-04-29 14:15 | 43.59641 | -27.44701 | 38850 ft | 482 kts | 53° |
| 2026-04-29 14:15 | 43.63905 | -27.37566 | 38859 ft | 482 kts | 53° |
| 2026-04-29 14:16 | 43.68160 | -27.30427 | 38862 ft | 482 kts | 53° |
| 2026-04-29 14:16 | 43.72413 | -27.23276 | 38863 ft | 481 kts | 53° |
| 2026-04-29 14:17 | 43.76644 | -27.16143 | 38869 ft | 480 kts | 53° |
| 2026-04-29 14:17 | 43.80873 | -27.08997 | 38868 ft | 480 kts | 54° |
| 2026-04-29 14:18 | 43.84381 | -27.03054 | 38877 ft | 480 kts | 54° |
| 2026-04-29 14:18 | 43.88600 | -26.95892 | 38882 ft | 480 kts | 53° |
| 2026-04-29 14:19 | 43.92819 | -26.88711 | 38881 ft | 481 kts | 53° |
| 2026-04-29 14:19 | 43.97041 | -26.81507 | 38882 ft | 481 kts | 54° |
| 2026-04-29 14:20 | 44.01257 | -26.74297 | 38885 ft | 481 kts | 53° |
| 2026-04-29 14:20 | 44.05469 | -26.67075 | 38889 ft | 480 kts | 53° |
| 2026-04-29 14:21 | 44.09668 | -26.59857 | 38889 ft | 480 kts | 54° |
| 2026-04-29 14:21 | 44.13839 | -26.52670 | 38895 ft | 480 kts | 54° |
| 2026-04-29 14:22 | 44.18033 | -26.45424 | 38900 ft | 481 kts | 53° |
| 2026-04-29 14:22 | 44.22229 | -26.38156 | 38900 ft | 482 kts | 54° |
| 2026-04-29 14:23 | 44.26428 | -26.30866 | 38908 ft | 482 kts | 54° |
| 2026-04-29 14:23 | 44.30623 | -26.23563 | 38906 ft | 483 kts | 53° |
| 2026-04-29 14:24 | 44.34820 | -26.16240 | 38912 ft | 483 kts | 53° |
| 2026-04-29 14:24 | 44.39009 | -26.08912 | 38917 ft | 483 kts | 54° |
| 2026-04-29 14:25 | 44.43196 | -26.01569 | 38923 ft | 483 kts | 54° |
| 2026-04-29 14:25 | 44.47377 | -25.94215 | 38922 ft | 483 kts | 53° |
| 2026-04-29 14:26 | 44.51555 | -25.86849 | 38927 ft | 483 kts | 53° |
| 2026-04-29 14:26 | 44.55723 | -25.79481 | 38934 ft | 483 kts | 54° |
| 2026-04-29 14:27 | 44.59892 | -25.72094 | 38933 ft | 483 kts | 54° |
| 2026-04-29 14:28 | 44.66121 | -25.61020 | 38940 ft | 481 kts | 53° |
| 2026-04-29 14:28 | 44.70264 | -25.53633 | 38943 ft | 481 kts | 54° |
| 2026-04-29 14:29 | 44.74399 | -25.46237 | 38949 ft | 481 kts | 53° |
| 2026-04-29 14:29 | 44.78528 | -25.38835 | 38958 ft | 480 kts | 53° |
| 2026-04-29 14:30 | 44.82644 | -25.31436 | 38953 ft | 480 kts | 53° |
| 2026-04-29 14:30 | 44.86757 | -25.24025 | 38958 ft | 480 kts | 54° |
| 2026-04-29 14:31 | 44.90863 | -25.16605 | 38958 ft | 480 kts | 53° |
| 2026-04-29 14:31 | 44.94962 | -25.09179 | 38958 ft | 480 kts | 53° |
| 2026-04-29 14:32 | 44.98917 | -25.01593 | 38969 ft | 479 kts | 60° |
| 2026-04-29 14:32 | 45.01578 | -24.93036 | 38975 ft | 475 kts | 72° |
| 2026-04-29 14:33 | 45.03633 | -24.84164 | 38968 ft | 475 kts | 74° |
| 2026-04-29 14:33 | 45.05596 | -24.75230 | 38974 ft | 476 kts | 74° |
| 2026-04-29 14:34 | 45.07560 | -24.66296 | 38975 ft | 476 kts | 73° |
| 2026-04-29 14:34 | 45.09535 | -24.57353 | 38974 ft | 476 kts | 73° |
| 2026-04-29 14:35 | 45.11507 | -24.48425 | 38967 ft | 476 kts | 74° |
| 2026-04-29 14:35 | 45.13474 | -24.39481 | 38972 ft | 475 kts | 73° |
| 2026-04-29 14:36 | 45.15430 | -24.30547 | 38981 ft | 475 kts | 73° |
| 2026-04-29 14:36 | 45.17380 | -24.21597 | 38986 ft | 475 kts | 73° |
| 2026-04-29 14:37 | 45.19322 | -24.12651 | 38988 ft | 475 kts | 73° |
| 2026-04-29 14:37 | 45.21259 | -24.03685 | 38986 ft | 475 kts | 74° |
| 2026-04-29 14:38 | 45.23186 | -23.94728 | 38987 ft | 475 kts | 74° |
| 2026-04-29 14:38 | 45.25108 | -23.85756 | 38987 ft | 475 kts | 74° |
| 2026-04-29 14:39 | 45.27020 | -23.76791 | 38991 ft | 475 kts | 74° |
| 2026-04-29 14:39 | 45.28924 | -23.67828 | 38993 ft | 474 kts | 74° |
| 2026-04-29 14:40 | 45.30822 | -23.58852 | 38988 ft | 474 kts | 75° |
| 2026-04-29 14:40 | 45.32710 | -23.49881 | 38995 ft | 474 kts | 75° |
| 2026-04-29 14:41 | 45.34594 | -23.40893 | 38991 ft | 475 kts | 75° |
| 2026-04-29 14:41 | 45.36470 | -23.31906 | 38993 ft | 474 kts | 75° |
| 2026-04-29 14:42 | 45.38339 | -23.22906 | 39001 ft | 474 kts | 75° |
| 2026-04-29 14:42 | 45.40200 | -23.13908 | 38996 ft | 475 kts | 75° |
| 2026-04-29 14:43 | 45.42057 | -23.04891 | 38999 ft | 475 kts | 75° |
| 2026-04-29 14:43 | 45.43906 | -22.95871 | 38996 ft | 474 kts | 75° |
| 2026-04-29 14:44 | 45.45747 | -22.86850 | 39003 ft | 474 kts | 75° |
| 2026-04-29 14:44 | 45.47582 | -22.77818 | 39007 ft | 474 kts | 75° |
| 2026-04-29 14:45 | 45.49407 | -22.68791 | 39003 ft | 474 kts | 75° |
| 2026-04-29 14:45 | 45.51229 | -22.59742 | 39008 ft | 474 kts | 75° |
| 2026-04-29 14:46 | 45.53042 | -22.50693 | 39011 ft | 474 kts | 75° |
| 2026-04-29 14:46 | 45.54848 | -22.41641 | 39005 ft | 475 kts | 75° |
| 2026-04-29 14:47 | 45.56648 | -22.32574 | 39008 ft | 475 kts | 74° |
| 2026-04-29 14:47 | 45.58440 | -22.23504 | 39010 ft | 474 kts | 75° |
| 2026-04-29 14:48 | 45.60223 | -22.14442 | 39007 ft | 474 kts | 75° |
| 2026-04-29 14:48 | 45.62000 | -22.05365 | 39013 ft | 474 kts | 75° |
| 2026-04-29 14:49 | 45.63758 | -21.96347 | 39013 ft | 475 kts | 74° |
| 2026-04-29 14:49 | 45.65534 | -21.87190 | 39013 ft | 475 kts | 74° |
| 2026-04-29 14:50 | 45.67281 | -21.78139 | 39013 ft | 476 kts | 75° |
| 2026-04-29 14:50 | 45.69031 | -21.69030 | 39011 ft | 475 kts | 75° |
| 2026-04-29 14:51 | 45.70776 | -21.59906 | 39014 ft | 476 kts | 74° |
| 2026-04-29 14:51 | 45.72514 | -21.50774 | 39017 ft | 476 kts | 74° |
| 2026-04-29 14:52 | 45.74247 | -21.41626 | 39020 ft | 476 kts | 74° |
| 2026-04-29 14:52 | 45.75973 | -21.32468 | 39024 ft | 476 kts | 75° |
| 2026-04-29 14:53 | 45.77690 | -21.23312 | 39024 ft | 476 kts | 75° |
| 2026-04-29 14:53 | 45.79401 | -21.14145 | 39022 ft | 477 kts | 75° |
| 2026-04-29 14:54 | 45.81107 | -21.04965 | 39017 ft | 477 kts | 75° |
| 2026-04-29 14:54 | 45.82803 | -20.95787 | 39020 ft | 477 kts | 75° |
| 2026-04-29 14:55 | 45.84494 | -20.86589 | 39025 ft | 476 kts | 75° |
| 2026-04-29 14:55 | 45.86174 | -20.77410 | 39017 ft | 476 kts | 75° |
| 2026-04-29 14:56 | 45.87847 | -20.68222 | 39022 ft | 476 kts | 75° |
| 2026-04-29 14:56 | 45.89513 | -20.59026 | 39030 ft | 476 kts | 75° |
| 2026-04-29 14:57 | 45.91170 | -20.49834 | 39027 ft | 476 kts | 75° |
| 2026-04-29 14:57 | 45.92823 | -20.40621 | 39030 ft | 476 kts | 75° |
| 2026-04-29 14:58 | 45.94467 | -20.31409 | 39030 ft | 476 kts | 75° |
| 2026-04-29 14:58 | 45.96102 | -20.22200 | 39034 ft | 476 kts | 75° |
| 2026-04-29 14:59 | 45.97731 | -20.12977 | 39032 ft | 476 kts | 75° |
| 2026-04-29 14:59 | 45.99396 | -20.03763 | 39034 ft | 476 kts | 72° |
| 2026-04-29 15:00 | 46.02165 | -19.95144 | 39031 ft | 475 kts | 59° |
| 2026-04-29 15:00 | 46.05606 | -19.87025 | 39037 ft | 476 kts | 57° |
| 2026-04-29 15:01 | 46.09141 | -19.78972 | 39038 ft | 476 kts | 57° |
| 2026-04-29 15:01 | 46.12671 | -19.70902 | 39042 ft | 476 kts | 57° |
| 2026-04-29 15:02 | 46.15588 | -19.64176 | 39042 ft | 476 kts | 57° |
| 2026-04-29 15:02 | 46.19087 | -19.56065 | 39044 ft | 476 kts | 58° |
| 2026-04-29 15:03 | 46.22576 | -19.47948 | 39049 ft | 476 kts | 58° |
| 2026-04-29 15:03 | 46.26619 | -19.38516 | 39040 ft | 475 kts | 57° |
| 2026-04-29 15:04 | 46.29531 | -19.31703 | 39050 ft | 475 kts | 58° |
| 2026-04-29 15:04 | 46.33001 | -19.23563 | 39043 ft | 475 kts | 57° |
| 2026-04-29 15:05 | 46.36462 | -19.15420 | 39052 ft | 475 kts | 57° |
| 2026-04-29 15:05 | 46.39916 | -19.07271 | 39043 ft | 474 kts | 57° |
| 2026-04-29 15:06 | 46.43357 | -18.99127 | 39046 ft | 474 kts | 58° |
| 2026-04-29 15:06 | 46.46769 | -18.91029 | 39057 ft | 473 kts | 57° |
| 2026-04-29 15:07 | 46.50198 | -18.82866 | 39049 ft | 474 kts | 57° |
| 2026-04-29 15:07 | 46.53626 | -18.74682 | 39049 ft | 475 kts | 57° |
| 2026-04-29 15:08 | 46.57048 | -18.66488 | 39053 ft | 475 kts | 57° |
| 2026-04-29 15:08 | 46.60468 | -18.58273 | 39053 ft | 475 kts | 57° |
| 2026-04-29 15:09 | 46.63880 | -18.50054 | 39064 ft | 475 kts | 57° |
| 2026-04-29 15:09 | 46.67286 | -18.41824 | 39058 ft | 474 kts | 57° |
| 2026-04-29 15:10 | 46.70686 | -18.33584 | 39058 ft | 474 kts | 57° |
| 2026-04-29 15:10 | 46.74080 | -18.25336 | 39059 ft | 474 kts | 57° |
| 2026-04-29 15:11 | 46.77463 | -18.17087 | 39071 ft | 474 kts | 57° |
| 2026-04-29 15:11 | 46.80842 | -18.08824 | 39064 ft | 474 kts | 57° |
| 2026-04-29 15:12 | 46.84212 | -18.00560 | 39064 ft | 473 kts | 57° |
| 2026-04-29 15:12 | 46.87572 | -17.92295 | 39064 ft | 473 kts | 57° |
| 2026-04-29 15:13 | 46.90927 | -17.84016 | 39086 ft | 473 kts | 58° |
| 2026-04-29 15:13 | 46.94275 | -17.75728 | 39069 ft | 473 kts | 57° |
| 2026-04-29 15:14 | 46.97612 | -17.67443 | 39069 ft | 472 kts | 57° |
| 2026-04-29 15:14 | 47.00939 | -17.59158 | 39069 ft | 472 kts | 57° |
| 2026-04-29 15:15 | 47.04264 | -17.50854 | 39072 ft | 472 kts | 57° |
| 2026-04-29 15:15 | 47.07578 | -17.42552 | 39072 ft | 472 kts | 57° |
| 2026-04-29 15:16 | 47.10884 | -17.34243 | 39075 ft | 471 kts | 57° |
| 2026-04-29 15:16 | 47.14180 | -17.25933 | 39075 ft | 470 kts | 57° |
| 2026-04-29 15:17 | 47.17466 | -17.17625 | 39072 ft | 470 kts | 57° |
| 2026-04-29 15:17 | 47.20742 | -17.09316 | 39075 ft | 470 kts | 58° |
| 2026-04-29 15:18 | 47.24015 | -17.00991 | 39075 ft | 470 kts | 58° |
| 2026-04-29 15:18 | 47.27281 | -16.92654 | 39075 ft | 470 kts | 58° |
| 2026-04-29 15:19 | 47.30539 | -16.84315 | 39075 ft | 470 kts | 58° |
| 2026-04-29 15:19 | 47.33794 | -16.75956 | 39081 ft | 470 kts | 57° |
| 2026-04-29 15:20 | 47.37038 | -16.67599 | 39080 ft | 470 kts | 58° |
| 2026-04-29 15:20 | 47.40279 | -16.59226 | 39075 ft | 470 kts | 58° |
| 2026-04-29 15:21 | 47.43509 | -16.50855 | 39078 ft | 470 kts | 58° |
| 2026-04-29 15:21 | 47.46737 | -16.42462 | 39079 ft | 469 kts | 57° |
| 2026-04-29 15:22 | 47.49945 | -16.34093 | 39077 ft | 467 kts | 58° |
| 2026-04-29 15:22 | 47.53140 | -16.25733 | 39078 ft | 466 kts | 58° |
| 2026-04-29 15:23 | 47.56326 | -16.17374 | 39076 ft | 466 kts | 58° |
| 2026-04-29 15:23 | 47.59509 | -16.08995 | 39091 ft | 467 kts | 57° |
| 2026-04-29 15:24 | 47.62691 | -16.00592 | 39080 ft | 468 kts | 57° |
| 2026-04-29 15:24 | 47.65847 | -15.92231 | 39078 ft | 468 kts | 58° |
| 2026-04-29 15:25 | 47.69041 | -15.83743 | 39076 ft | 468 kts | 58° |
| 2026-04-29 15:25 | 47.72208 | -15.75298 | 39075 ft | 468 kts | 58° |
| 2026-04-29 15:26 | 47.75369 | -15.66846 | 39078 ft | 469 kts | 58° |
| 2026-04-29 15:26 | 47.78531 | -15.58363 | 39082 ft | 469 kts | 58° |
| 2026-04-29 15:27 | 47.81689 | -15.49862 | 39077 ft | 469 kts | 58° |
| 2026-04-29 15:27 | 47.84839 | -15.41355 | 39078 ft | 469 kts | 58° |
| 2026-04-29 15:28 | 47.87987 | -15.32829 | 39083 ft | 470 kts | 58° |
| 2026-04-29 15:28 | 47.91133 | -15.24279 | 39081 ft | 471 kts | 58° |
| 2026-04-29 15:29 | 47.94275 | -15.15713 | 39076 ft | 471 kts | 58° |
| 2026-04-29 15:30 | 48.00538 | -14.98547 | 39073 ft | 471 kts | 59° |
| 2026-04-29 15:30 | 48.03320 | -14.89636 | 39073 ft | 476 kts | 64° |
| 2026-04-29 15:31 | 48.05880 | -14.80505 | 39071 ft | 476 kts | 64° |
| 2026-04-29 15:31 | 48.08475 | -14.71407 | 39072 ft | 476 kts | 63° |
| 2026-04-29 15:32 | 48.11121 | -14.62327 | 39080 ft | 476 kts | 64° |
| 2026-04-29 15:32 | 48.13761 | -14.53311 | 39070 ft | 477 kts | 64° |
| 2026-04-29 15:33 | 48.16416 | -14.44213 | 39064 ft | 477 kts | 64° |
| 2026-04-29 15:33 | 48.19063 | -14.35095 | 39062 ft | 477 kts | 64° |
| 2026-04-29 15:34 | 48.21719 | -14.25908 | 39070 ft | 477 kts | 64° |
| 2026-04-29 15:34 | 48.24331 | -14.16839 | 39058 ft | 477 kts | 64° |
| 2026-04-29 15:35 | 48.26954 | -14.07698 | 39059 ft | 477 kts | 64° |
| 2026-04-29 15:35 | 48.29566 | -13.98559 | 39053 ft | 476 kts | 65° |
| 2026-04-29 15:36 | 48.32173 | -13.89404 | 39051 ft | 477 kts | 65° |
| 2026-04-29 15:36 | 48.34776 | -13.80229 | 39055 ft | 478 kts | 65° |
| 2026-04-29 15:37 | 48.37376 | -13.71029 | 39051 ft | 479 kts | 65° |
| 2026-04-29 15:37 | 48.39974 | -13.61797 | 39051 ft | 479 kts | 65° |
| 2026-04-29 15:38 | 48.42564 | -13.52562 | 39047 ft | 479 kts | 65° |
| 2026-04-29 15:38 | 48.45147 | -13.43312 | 39047 ft | 479 kts | 65° |
| 2026-04-29 15:39 | 48.47722 | -13.34061 | 39039 ft | 479 kts | 65° |
| 2026-04-29 15:39 | 48.50290 | -13.24793 | 39045 ft | 479 kts | 65° |
| 2026-04-29 15:40 | 48.52852 | -13.15513 | 39048 ft | 479 kts | 66° |
| 2026-04-29 15:40 | 48.55408 | -13.06220 | 39041 ft | 479 kts | 66° |
| 2026-04-29 15:41 | 48.57952 | -12.96931 | 39039 ft | 478 kts | 66° |
| 2026-04-29 15:41 | 48.60486 | -12.87641 | 39031 ft | 478 kts | 66° |
| 2026-04-29 15:42 | 48.63010 | -12.78353 | 39034 ft | 478 kts | 66° |
| 2026-04-29 15:42 | 48.65522 | -12.69075 | 39041 ft | 478 kts | 66° |
| 2026-04-29 15:43 | 48.68032 | -12.59768 | 39031 ft | 478 kts | 67° |
| 2026-04-29 15:43 | 48.70534 | -12.50448 | 39031 ft | 478 kts | 68° |
| 2026-04-29 15:44 | 48.73026 | -12.41131 | 39026 ft | 478 kts | 68° |
| 2026-04-29 15:44 | 48.75514 | -12.31790 | 39026 ft | 478 kts | 68° |
| 2026-04-29 15:45 | 48.77991 | -12.22458 | 39022 ft | 476 kts | 68° |
| 2026-04-29 15:45 | 48.80447 | -12.13162 | 39021 ft | 474 kts | 68° |
| 2026-04-29 15:46 | 48.83184 | -12.04141 | 39023 ft | 474 kts | 59° |
| 2026-04-29 15:46 | 48.87410 | -11.96480 | 39023 ft | 476 kts | 42° |
| 2026-04-29 15:47 | 48.92687 | -11.90371 | 39024 ft | 478 kts | 37° |
| 2026-04-29 15:47 | 48.97234 | -11.85478 | 39023 ft | 478 kts | 37° |
| 2026-04-29 15:48 | 49.02520 | -11.79360 | 39026 ft | 476 kts | 45° |
| 2026-04-29 15:48 | 49.06566 | -11.71471 | 39024 ft | 473 kts | 62° |
| 2026-04-29 15:49 | 49.09307 | -11.62366 | 39022 ft | 472 kts | 68° |
| 2026-04-29 15:49 | 49.11793 | -11.53090 | 39013 ft | 472 kts | 69° |
| 2026-04-29 15:50 | 49.14261 | -11.43761 | 39022 ft | 475 kts | 69° |
| 2026-04-29 15:50 | 49.16753 | -11.34412 | 39018 ft | 475 kts | 69° |
| 2026-04-29 15:51 | 49.19250 | -11.25065 | 39019 ft | 475 kts | 69° |
| 2026-04-29 15:51 | 49.21740 | -11.15719 | 39020 ft | 474 kts | 69° |
| 2026-04-29 15:52 | 49.24216 | -11.06384 | 39020 ft | 474 kts | 69° |
| 2026-04-29 15:52 | 49.26685 | -10.97036 | 39021 ft | 475 kts | 69° |
| 2026-04-29 15:53 | 49.29153 | -10.87651 | 39027 ft | 475 kts | 69° |
| 2026-04-29 15:53 | 49.31595 | -10.78326 | 39027 ft | 475 kts | 69° |
| 2026-04-29 15:54 | 49.34045 | -10.68937 | 39022 ft | 475 kts | 70° |
| 2026-04-29 15:54 | 49.36496 | -10.59502 | 39024 ft | 477 kts | 70° |
| 2026-04-29 15:55 | 49.38942 | -10.50046 | 39024 ft | 477 kts | 70° |
| 2026-04-29 15:55 | 49.41381 | -10.40582 | 39032 ft | 477 kts | 70° |
| 2026-04-29 15:56 | 49.43816 | -10.31091 | 39026 ft | 477 kts | 70° |
| 2026-04-29 15:56 | 49.46243 | -10.21590 | 39026 ft | 478 kts | 70° |
| 2026-04-29 15:57 | 49.48666 | -10.12064 | 39027 ft | 479 kts | 70° |
| 2026-04-29 15:57 | 49.51087 | -10.02510 | 39026 ft | 479 kts | 70° |
| 2026-04-29 15:58 | 49.53499 | -9.92951 | 39025 ft | 479 kts | 71° |
| 2026-04-29 15:58 | 49.55902 | -9.83385 | 39023 ft | 479 kts | 71° |
| 2026-04-29 15:59 | 49.58300 | -9.73795 | 39028 ft | 480 kts | 71° |
| 2026-04-29 15:59 | 49.60692 | -9.64193 | 39024 ft | 480 kts | 71° |
| 2026-04-29 16:00 | 49.63073 | -9.54592 | 39020 ft | 480 kts | 71° |
| 2026-04-29 16:00 | 49.65449 | -9.44969 | 39021 ft | 480 kts | 72° |
| 2026-04-29 16:01 | 49.67817 | -9.35340 | 39022 ft | 480 kts | 72° |
| 2026-04-29 16:01 | 49.70177 | -9.25699 | 39025 ft | 480 kts | 72° |
| 2026-04-29 16:02 | 49.72528 | -9.16050 | 39027 ft | 480 kts | 71° |
| 2026-04-29 16:02 | 49.74872 | -9.06392 | 39017 ft | 480 kts | 72° |
| 2026-04-29 16:03 | 49.77203 | -8.96744 | 39015 ft | 478 kts | 72° |
| 2026-04-29 16:03 | 49.79521 | -8.87106 | 39018 ft | 478 kts | 72° |
| 2026-04-29 16:04 | 49.81830 | -8.77464 | 39029 ft | 478 kts | 72° |
| 2026-04-29 16:04 | 49.84131 | -8.67813 | 39024 ft | 478 kts | 72° |
| 2026-04-29 16:05 | 49.86423 | -8.58154 | 39024 ft | 477 kts | 72° |
| 2026-04-29 16:05 | 49.88704 | -8.48501 | 39021 ft | 476 kts | 72° |
| 2026-04-29 16:06 | 49.90975 | -8.38848 | 39024 ft | 476 kts | 72° |
| 2026-04-29 16:06 | 49.93237 | -8.29191 | 39018 ft | 476 kts | 72° |
| 2026-04-29 16:07 | 49.95490 | -8.19527 | 39021 ft | 476 kts | 72° |
| 2026-04-29 16:07 | 49.97734 | -8.09855 | 39032 ft | 477 kts | 72° |
| 2026-04-29 16:08 | 49.99974 | -8.00162 | 39032 ft | 477 kts | 72° |
| 2026-04-29 16:08 | 50.02333 | -7.90525 | 39032 ft | 477 kts | 70° |
| 2026-04-29 16:09 | 50.04831 | -7.80956 | 39030 ft | 477 kts | 70° |
| 2026-04-29 16:09 | 50.07310 | -7.71369 | 39028 ft | 478 kts | 71° |
| 2026-04-29 16:10 | 50.09758 | -7.61738 | 39031 ft | 479 kts | 71° |
| 2026-04-29 16:10 | 50.12189 | -7.52084 | 39034 ft | 479 kts | 71° |
| 2026-04-29 16:11 | 50.14611 | -7.42421 | 39034 ft | 479 kts | 71° |
| 2026-04-29 16:11 | 50.17026 | -7.32750 | 39026 ft | 479 kts | 71° |
| 2026-04-29 16:12 | 50.19421 | -7.23117 | 39034 ft | 480 kts | 71° |
| 2026-04-29 16:12 | 50.21827 | -7.13401 | 39042 ft | 478 kts | 71° |
| 2026-04-29 16:13 | 50.24215 | -7.03719 | 39042 ft | 477 kts | 71° |
| 2026-04-29 16:13 | 50.26591 | -6.94036 | 39040 ft | 477 kts | 72° |
| 2026-04-29 16:14 | 50.28959 | -6.84343 | 39039 ft | 479 kts | 72° |
| 2026-04-29 16:14 | 50.31333 | -6.74582 | 39040 ft | 481 kts | 72° |
| 2026-04-29 16:15 | 50.33704 | -6.64797 | 39045 ft | 481 kts | 72° |
| 2026-04-29 16:15 | 50.36067 | -6.54999 | 39046 ft | 481 kts | 72° |
| 2026-04-29 16:16 | 50.38421 | -6.45194 | 39035 ft | 481 kts | 72° |
| 2026-04-29 16:16 | 50.40767 | -6.35375 | 39045 ft | 481 kts | 73° |
| 2026-04-29 16:17 | 50.43106 | -6.25544 | 39043 ft | 481 kts | 73° |
| 2026-04-29 16:17 | 50.45437 | -6.15702 | 39050 ft | 481 kts | 73° |
| 2026-04-29 16:18 | 50.47759 | -6.05853 | 39049 ft | 481 kts | 73° |
| 2026-04-29 16:18 | 50.50073 | -5.95990 | 39048 ft | 481 kts | 73° |
| 2026-04-29 16:19 | 50.52377 | -5.86126 | 39048 ft | 480 kts | 73° |
| 2026-04-29 16:19 | 50.54668 | -5.76273 | 39048 ft | 480 kts | 73° |
| 2026-04-29 16:20 | 50.56952 | -5.66404 | 39056 ft | 480 kts | 73° |
| 2026-04-29 16:20 | 50.59227 | -5.56528 | 39044 ft | 480 kts | 73° |
| 2026-04-29 16:21 | 50.61495 | -5.46637 | 39053 ft | 480 kts | 73° |
| 2026-04-29 16:21 | 50.63756 | -5.36732 | 39056 ft | 481 kts | 73° |
| 2026-04-29 16:22 | 50.66007 | -5.26825 | 39059 ft | 480 kts | 73° |
| 2026-04-29 16:22 | 50.68237 | -5.16964 | 39067 ft | 480 kts | 73° |
| 2026-04-29 16:23 | 50.70486 | -5.06972 | 39067 ft | 480 kts | 73° |
| 2026-04-29 16:23 | 50.72711 | -4.97036 | 39075 ft | 480 kts | 74° |
| 2026-04-29 16:24 | 50.74928 | -4.87091 | 39075 ft | 480 kts | 74° |
| 2026-04-29 16:24 | 50.77124 | -4.77194 | 39076 ft | 480 kts | 74° |
| 2026-04-29 16:25 | 50.79323 | -4.67238 | 39063 ft | 480 kts | 74° |
| 2026-04-29 16:25 | 50.81513 | -4.57272 | 39085 ft | 480 kts | 74° |
| 2026-04-29 16:26 | 50.83695 | -4.47294 | 39091 ft | 480 kts | 75° |
| 2026-04-29 16:26 | 50.85867 | -4.37315 | 39090 ft | 479 kts | 75° |
| 2026-04-29 16:27 | 50.88028 | -4.27336 | 39094 ft | 479 kts | 75° |
| 2026-04-29 16:27 | 50.90182 | -4.17345 | 39099 ft | 479 kts | 75° |
| 2026-04-29 16:28 | 50.92321 | -4.07372 | 39104 ft | 477 kts | 75° |
| 2026-04-29 16:28 | 50.94448 | -3.97407 | 39113 ft | 477 kts | 75° |
| 2026-04-29 16:29 | 50.96566 | -3.87429 | 39116 ft | 477 kts | 75° |
| 2026-04-29 16:29 | 50.98675 | -3.77452 | 39104 ft | 477 kts | 75° |
| 2026-04-29 16:30 | 51.00774 | -3.67468 | 39127 ft | 477 kts | 75° |
| 2026-04-29 16:30 | 51.02867 | -3.57469 | 39132 ft | 477 kts | 76° |
| 2026-04-29 16:31 | 51.04949 | -3.47469 | 39132 ft | 477 kts | 76° |
| 2026-04-29 16:31 | 51.06674 | -3.39148 | 39141 ft | 477 kts | 76° |
| 2026-04-29 16:32 | 51.08739 | -3.29137 | 39136 ft | 477 kts | 76° |
| 2026-04-29 16:32 | 51.10805 | -3.19071 | 39149 ft | 480 kts | 76° |
| 2026-04-29 16:33 | 51.13897 | -3.03911 | 39159 ft | 480 kts | 76° |
| 2026-04-29 16:33 | 51.15949 | -2.93791 | 39167 ft | 480 kts | 76° |
| 2026-04-29 16:34 | 51.17992 | -2.83660 | 39150 ft | 480 kts | 76° |
| 2026-04-29 16:34 | 51.20009 | -2.73597 | 39140 ft | 484 kts | 76° |
| 2026-04-29 16:35 | 51.22061 | -2.63309 | 39144 ft | 485 kts | 76° |
| 2026-04-29 16:35 | 51.24099 | -2.53047 | 39152 ft | 485 kts | 76° |
| 2026-04-29 16:36 | 51.26128 | -2.42772 | 39176 ft | 485 kts | 76° |
| 2026-04-29 16:36 | 51.28147 | -2.32492 | 39181 ft | 486 kts | 76° |
| 2026-04-29 16:37 | 51.30150 | -2.22233 | 39191 ft | 488 kts | 76° |
| 2026-04-29 16:37 | 51.31837 | -2.13554 | 39187 ft | 488 kts | 76° |
| 2026-04-29 16:38 | 51.34163 | -2.01529 | 39202 ft | 486 kts | 76° |
| 2026-04-29 16:38 | 51.36270 | -1.91249 | 39202 ft | 487 kts | 74° |
| 2026-04-29 16:39 | 51.38582 | -1.81070 | 39202 ft | 486 kts | 73° |
| 2026-04-29 16:39 | 51.40879 | -1.70908 | 39213 ft | 485 kts | 73° |
| 2026-04-29 16:40 | 51.43135 | -1.60717 | 39220 ft | 485 kts | 73° |
| 2026-04-29 16:40 | 51.45355 | -1.50512 | 39219 ft | 485 kts | 73° |
| 2026-04-29 16:41 | 51.47564 | -1.40301 | 39220 ft | 484 kts | 73° |
| 2026-04-29 16:41 | 51.49761 | -1.30114 | 39231 ft | 482 kts | 74° |
| 2026-04-29 16:42 | 51.51941 | -1.19961 | 39236 ft | 481 kts | 74° |
| 2026-04-29 16:42 | 51.54003 | -1.09758 | 39239 ft | 479 kts | 77° |
| 2026-04-29 16:43 | 51.55607 | -0.99372 | 39238 ft | 479 kts | 80° |
| 2026-04-29 16:43 | 51.57152 | -0.88975 | 39236 ft | 477 kts | 79° |
| 2026-04-29 16:44 | 51.58736 | -0.78745 | 39241 ft | 473 kts | 78° |
| 2026-04-29 16:44 | 51.60360 | -0.68442 | 39242 ft | 472 kts | 78° |
| 2026-04-29 16:45 | 51.61959 | -0.58283 | 39241 ft | 472 kts | 78° |
| 2026-04-29 16:45 | 51.63560 | -0.48031 | 39239 ft | 472 kts | 78° |
| 2026-04-29 16:46 | 51.65148 | -0.37793 | 39402 ft | 472 kts | 78° |
| 2026-04-29 16:46 | 51.66730 | -0.27520 | 39402 ft | 472 kts | 79° |
| 2026-04-29 16:47 | 51.68336 | -0.17276 | 39401 ft | 472 kts | 77° |
| 2026-04-29 16:47 | 51.70061 | -0.07070 | 39383 ft | 472 kts | 78° |
| 2026-04-29 16:48 | 51.71678 | 0.03184 | 39270 ft | 472 kts | 79° |
| 2026-04-29 16:48 | 51.73255 | 0.13439 | 39292 ft | 470 kts | 79° |
| 2026-04-29 16:49 | 51.74823 | 0.23671 | 39291 ft | 470 kts | 78° |
| 2026-04-29 16:49 | 51.76391 | 0.33916 | 39293 ft | 470 kts | 79° |
| 2026-04-29 16:50 | 51.77953 | 0.44174 | 39293 ft | 470 kts | 79° |
| 2026-04-29 16:50 | 51.79504 | 0.54422 | 39290 ft | 470 kts | 79° |
| 2026-04-29 16:51 | 51.81041 | 0.64645 | 39293 ft | 468 kts | 78° |
| 2026-04-29 16:51 | 51.82585 | 0.74784 | 39289 ft | 462 kts | 78° |
| 2026-04-29 16:52 | 51.84157 | 0.84833 | 39290 ft | 461 kts | 77° |
| 2026-04-29 16:52 | 51.85963 | 0.94798 | 39290 ft | 462 kts | 75° |
| 2026-04-29 16:53 | 51.87832 | 1.04716 | 39235 ft | 458 kts | 75° |
| 2026-04-29 16:53 | 51.88746 | 1.09646 | 38773 ft | 456 kts | 75° |
| 2026-04-29 16:53 | 51.89642 | 1.14550 | 38036 ft | 454 kts | 75° |
| 2026-04-29 16:54 | 51.90525 | 1.19433 | 37550 ft | 448 kts | 76° |
| 2026-04-29 16:54 | 51.91385 | 1.24226 | 37211 ft | 439 kts | 76° |
| 2026-04-29 16:54 | 51.92229 | 1.28949 | 36726 ft | 434 kts | 76° |
| 2026-04-29 16:54 | 51.93064 | 1.33639 | 36167 ft | 432 kts | 76° |
| 2026-04-29 16:55 | 51.93891 | 1.38297 | 35613 ft | 430 kts | 76° |
| 2026-04-29 16:55 | 51.94714 | 1.42948 | 35069 ft | 427 kts | 76° |
| 2026-04-29 16:55 | 51.95529 | 1.47561 | 34535 ft | 426 kts | 76° |
| 2026-04-29 16:55 | 51.96347 | 1.52206 | 33992 ft | 434 kts | 76° |
| 2026-04-29 16:56 | 51.97187 | 1.57002 | 33457 ft | 446 kts | 76° |
| 2026-04-29 16:56 | 51.98030 | 1.61806 | 32947 ft | 440 kts | 76° |
| 2026-04-29 16:56 | 51.98866 | 1.66570 | 32307 ft | 439 kts | 76° |
| 2026-04-29 16:56 | 51.99681 | 1.71296 | 31944 ft | 430 kts | 77° |
| 2026-04-29 16:57 | 52.00406 | 1.75942 | 31595 ft | 421 kts | 78° |
| 2026-04-29 16:57 | 52.01105 | 1.80541 | 31150 ft | 422 kts | 78° |
| 2026-04-29 16:57 | 52.01827 | 1.85292 | 30664 ft | 447 kts | 78° |
| 2026-04-29 16:57 | 52.02595 | 1.90322 | 30076 ft | 468 kts | 78° |
| 2026-04-29 16:58 | 52.03388 | 1.95484 | 29408 ft | 473 kts | 78° |
| 2026-04-29 16:58 | 52.04184 | 2.00657 | 28754 ft | 471 kts | 78° |
| 2026-04-29 16:58 | 52.04974 | 2.05797 | 28107 ft | 466 kts | 78° |
| 2026-04-29 16:58 | 52.05751 | 2.10872 | 27487 ft | 460 kts | 78° |
| 2026-04-29 16:59 | 52.06516 | 2.15884 | 26864 ft | 455 kts | 78° |
| 2026-04-29 16:59 | 52.07272 | 2.20860 | 26267 ft | 451 kts | 78° |
| 2026-04-29 16:59 | 52.08018 | 2.25786 | 25680 ft | 447 kts | 78° |
| 2026-04-29 16:59 | 52.08756 | 2.30671 | 25111 ft | 443 kts | 78° |
| 2026-04-29 17:00 | 52.09484 | 2.35511 | 24712 ft | 439 kts | 78° |
| 2026-04-29 17:00 | 52.10204 | 2.40308 | 24324 ft | 437 kts | 78° |
| 2026-04-29 17:00 | 52.10927 | 2.45095 | 23884 ft | 435 kts | 77° |
| 2026-04-29 17:00 | 52.11913 | 2.49731 | 23366 ft | 435 kts | 67° |
| 2026-04-29 17:01 | 52.13352 | 2.54036 | 23028 ft | 431 kts | 62° |
| 2026-04-29 17:01 | 52.14877 | 2.58227 | 22791 ft | 430 kts | 61° |
| 2026-04-29 17:01 | 52.16400 | 2.62408 | 22525 ft | 428 kts | 61° |
| 2026-04-29 17:01 | 52.17912 | 2.66573 | 22256 ft | 426 kts | 61° |
| 2026-04-29 17:02 | 52.19415 | 2.70728 | 21990 ft | 424 kts | 61° |
| 2026-04-29 17:02 | 52.20907 | 2.74863 | 21737 ft | 423 kts | 61° |
| 2026-04-29 17:02 | 52.22390 | 2.78983 | 21475 ft | 421 kts | 62° |
| 2026-04-29 17:02 | 52.23867 | 2.83093 | 21217 ft | 419 kts | 61° |
| 2026-04-29 17:03 | 52.25338 | 2.87193 | 20972 ft | 417 kts | 62° |
| 2026-04-29 17:03 | 52.26800 | 2.91278 | 20719 ft | 416 kts | 62° |
| 2026-04-29 17:03 | 52.28257 | 2.95354 | 20480 ft | 414 kts | 62° |
| 2026-04-29 17:03 | 52.29702 | 2.99403 | 20241 ft | 413 kts | 61° |
| 2026-04-29 17:04 | 52.31144 | 3.03448 | 20007 ft | 411 kts | 61° |
| 2026-04-29 17:04 | 52.32578 | 3.07481 | 19755 ft | 409 kts | 61° |
| 2026-04-29 17:04 | 52.34003 | 3.11492 | 19519 ft | 408 kts | 61° |
| 2026-04-29 17:04 | 52.35423 | 3.15496 | 19292 ft | 406 kts | 61° |
| 2026-04-29 17:05 | 52.36838 | 3.19492 | 19059 ft | 405 kts | 61° |
| 2026-04-29 17:05 | 52.38243 | 3.23469 | 18736 ft | 402 kts | 61° |
| 2026-04-29 17:05 | 52.39634 | 3.27409 | 18104 ft | 397 kts | 61° |
| 2026-04-29 17:05 | 52.41004 | 3.31295 | 17406 ft | 392 kts | 61° |
| 2026-04-29 17:06 | 52.42341 | 3.35094 | 16744 ft | 388 kts | 61° |
| 2026-04-29 17:06 | 52.43693 | 3.38946 | 16062 ft | 383 kts | 61° |
| 2026-04-29 17:06 | 52.44828 | 3.42852 | 15421 ft | 378 kts | 71° |
| 2026-04-29 17:06 | 52.45524 | 3.46923 | 14786 ft | 374 kts | 76° |
| 2026-04-29 17:07 | 52.46122 | 3.51108 | 14106 ft | 371 kts | 76° |
| 2026-04-29 17:07 | 52.46504 | 3.53825 | 13612 ft | 369 kts | 76° |
| 2026-04-29 17:07 | 52.46887 | 3.56531 | 13160 ft | 366 kts | 76° |
| 2026-04-29 17:07 | 52.47649 | 3.61915 | 12297 ft | 359 kts | 77° |
| 2026-04-29 17:08 | 52.48378 | 3.67055 | 11995 ft | 337 kts | 77° |
| 2026-04-29 17:08 | 52.48555 | 3.68305 | 11955 ft | 331 kts | 77° |
| 2026-04-29 17:08 | 52.49384 | 3.74163 | 11729 ft | 304 kts | 77° |
| 2026-04-29 17:08 | 52.49848 | 3.77448 | 11611 ft | 289 kts | 77° |
| 2026-04-29 17:09 | 52.50291 | 3.80585 | 11454 ft | 275 kts | 77° |
| 2026-04-29 17:09 | 52.50711 | 3.83571 | 11337 ft | 264 kts | 77° |
| 2026-04-29 17:09 | 52.51116 | 3.86451 | 11215 ft | 254 kts | 77° |
| 2026-04-29 17:09 | 52.51505 | 3.89232 | 11057 ft | 246 kts | 77° |
| 2026-04-29 17:10 | 52.51890 | 3.91979 | 10830 ft | 247 kts | 77° |
| 2026-04-29 17:10 | 52.52247 | 3.94734 | 10539 ft | 247 kts | 81° |
| 2026-04-29 17:10 | 52.52244 | 3.97544 | 10279 ft | 248 kts | 99° |
| 2026-04-29 17:10 | 52.51709 | 4.00338 | 10284 ft | 265 kts | 108° |
| 2026-04-29 17:11 | 52.51015 | 4.03187 | 10244 ft | 271 kts | 109° |
| 2026-04-29 17:11 | 52.50309 | 4.06030 | 9846 ft | 268 kts | 109° |
| 2026-04-29 17:11 | 52.49614 | 4.08838 | 9556 ft | 261 kts | 109° |
| 2026-04-29 17:11 | 52.48945 | 4.11551 | 9319 ft | 252 kts | 109° |
| 2026-04-29 17:12 | 52.48299 | 4.14181 | 9086 ft | 245 kts | 109° |
| 2026-04-29 17:12 | 52.47672 | 4.16732 | 8837 ft | 238 kts | 109° |
| 2026-04-29 17:12 | 52.47069 | 4.19192 | 8613 ft | 234 kts | 109° |
| 2026-04-29 17:12 | 52.46864 | 4.20026 | 8540 ft | 234 kts | 109° |
| 2026-04-29 17:13 | 52.45835 | 4.24119 | 8121 ft | 234 kts | 113° |
| 2026-04-29 17:13 | 52.44898 | 4.26365 | 7596 ft | 244 kts | 130° |
| 2026-04-29 17:13 | 52.43518 | 4.28017 | 7081 ft | 255 kts | 146° |
| 2026-04-29 17:13 | 52.41908 | 4.29380 | 6615 ft | 257 kts | 149° |
| 2026-04-29 17:14 | 52.40350 | 4.30619 | 6427 ft | 247 kts | 149° |
| 2026-04-29 17:14 | 52.38834 | 4.31818 | 6247 ft | 237 kts | 149° |
| 2026-04-29 17:14 | 52.37381 | 4.32970 | 6089 ft | 227 kts | 148° |
| 2026-04-29 17:14 | 52.35990 | 4.34073 | 5832 ft | 217 kts | 148° |
| 2026-04-29 17:15 | 52.34647 | 4.35141 | 5373 ft | 213 kts | 148° |
| 2026-04-29 17:15 | 52.33334 | 4.36187 | 4976 ft | 206 kts | 148° |
| 2026-04-29 17:15 | 52.32070 | 4.37189 | 4711 ft | 199 kts | 148° |
| 2026-04-29 17:15 | 52.30830 | 4.38175 | 4497 ft | 197 kts | 148° |
| 2026-04-29 17:16 | 52.29595 | 4.39159 | 4241 ft | 198 kts | 148° |
| 2026-04-29 17:16 | 52.28355 | 4.40145 | 4005 ft | 198 kts | 148° |
| 2026-04-29 17:16 | 52.27123 | 4.41123 | 3767 ft | 197 kts | 148° |
| 2026-04-29 17:16 | 52.25924 | 4.42172 | 3600 ft | 194 kts | 143° |
| 2026-04-29 17:17 | 52.24782 | 4.43323 | 3471 ft | 193 kts | 142° |
| 2026-04-29 17:17 | 52.23651 | 4.44491 | 3352 ft | 192 kts | 141° |
| 2026-04-29 17:17 | 52.22537 | 4.45685 | 3245 ft | 190 kts | 138° |
| 2026-04-29 17:17 | 52.21689 | 4.47189 | 3138 ft | 171 kts | 116° |
| 2026-04-29 17:18 | 52.21249 | 4.48912 | 3061 ft | 162 kts | 105° |
| 2026-04-29 17:18 | 52.21016 | 4.50095 | 3025 ft | 162 kts | 104° |
| 2026-04-29 17:18 | 52.20828 | 4.51871 | 2966 ft | 161 kts | 88° |
| 2026-04-29 17:18 | 52.21132 | 4.53612 | 2896 ft | 162 kts | 64° |
| 2026-04-29 17:19 | 52.21747 | 4.55138 | 2692 ft | 160 kts | 59° |
| 2026-04-29 17:19 | 52.22343 | 4.56662 | 2459 ft | 159 kts | 62° |
| 2026-04-29 17:19 | 52.22922 | 4.58189 | 2235 ft | 159 kts | 61° |
| 2026-04-29 17:19 | 52.23509 | 4.59709 | 2022 ft | 154 kts | 60° |
| 2026-04-29 17:20 | 52.24056 | 4.61122 | 1804 ft | 140 kts | 61° |
| 2026-04-29 17:20 | 52.24551 | 4.62405 | 1617 ft | 128 kts | 62° |
| 2026-04-29 17:20 | 52.25005 | 4.63580 | 1424 ft | 119 kts | 62° |
| 2026-04-29 17:20 | 52.25435 | 4.64684 | 1236 ft | 112 kts | 63° |
| 2026-04-29 17:21 | 52.25842 | 4.65776 | 1107 ft | 112 kts | 62° |
| 2026-04-29 17:21 | 52.26239 | 4.66870 | 995 ft | 112 kts | 61° |
| 2026-04-29 17:21 | 52.26660 | 4.67949 | 838 ft | 115 kts | 62° |
| 2026-04-29 17:21 | 52.27102 | 4.69050 | 670 ft | 116 kts | 60° |
| 2026-04-29 17:22 | 52.27528 | 4.70158 | 542 ft | 116 kts | 60° |
| 2026-04-29 17:22 | 52.27953 | 4.71265 | 392 ft | 116 kts | 58° |
| 2026-04-29 17:22 | 52.28394 | 4.72378 | 222 ft | 116 kts | 59° |
| 2026-04-29 17:22 | 52.28823 | 4.73492 | 84 ft | 117 kts | 58° |
| 2026-04-29 17:23 | 52.29252 | 4.74607 | 7 ft | 108 kts | 57° |
| 2026-04-29 17:23 | 52.29592 | 4.75498 | 4 ft | 80 kts | 58° |
| 2026-04-29 17:23 | 52.29850 | 4.76166 | 3 ft | 61 kts | 58° |
| 2026-04-29 17:23 | 52.30050 | 4.76689 | 4 ft | 48 kts | 58° |
| 2026-04-29 17:24 | 52.30185 | 4.77043 | 3 ft | 32 kts | 58° |
| 2026-04-29 17:24 | 52.30297 | 4.77287 | 2 ft | 22 kts | 39° |
| 2026-04-29 17:24 | 52.30396 | 4.77383 | 4 ft | 14 kts | 26° |
| 2026-04-29 17:24 | 52.30459 | 4.77415 | 4 ft | 7 kts | 359° |
| 2026-04-29 17:25 | 52.30510 | 4.77390 | 5 ft | 9 kts | 358° |
| 2026-04-29 17:25 | 52.30552 | 4.77450 | 5 ft | 8 kts | 58° |
| 2026-04-29 17:25 | 52.30589 | 4.77535 | 5 ft | 11 kts | 48° |
| 2026-04-29 17:25 | 52.30661 | 4.77587 | 5 ft | 13 kts | 6° |
| 2026-04-29 17:26 | 52.30760 | 4.77599 | 5 ft | 16 kts | 3° |
| 2026-04-29 17:26 | 52.30879 | 4.77608 | 5 ft | 19 kts | 3° |
| 2026-04-29 17:26 | 52.31018 | 4.77621 | 5 ft | 21 kts | 3° |
| 2026-04-29 17:26 | 52.31161 | 4.77635 | 5 ft | 19 kts | 4° |
| 2026-04-29 17:27 | 52.31298 | 4.77647 | 5 ft | 20 kts | 3° |
| 2026-04-29 17:27 | 52.31424 | 4.77647 | 5 ft | 18 kts | 349° |
| 2026-04-29 17:27 | 52.31529 | 4.77531 | 5 ft | 18 kts | 316° |
| 2026-04-29 17:27 | 52.31577 | 4.77339 | 5 ft | 18 kts | 270° |
| 2026-04-29 17:28 | 52.31571 | 4.77160 | 5 ft | 17 kts | 267° |
| 2026-04-29 17:28 | 52.31564 | 4.76948 | 5 ft | 21 kts | 267° |
| 2026-04-29 17:28 | 52.31555 | 4.76692 | 5 ft | 24 kts | 267° |
| 2026-04-29 17:28 | 52.31545 | 4.76413 | 5 ft | 25 kts | 266° |
| 2026-04-29 17:29 | 52.31537 | 4.76175 | 5 ft | 18 kts | 267° |
| 2026-04-29 17:29 | 52.31531 | 4.75998 | 5 ft | 9 kts | 266° |
| 2026-04-29 17:29 | 52.31518 | 4.75940 | 5 ft | 4 kts | 228° |
| 2026-04-29 17:29 | 52.31499 | 4.75924 | 5 ft | 3 kts | 199° |
| 2026-04-29 17:30 | 52.31465 | 4.75922 | 5 ft | 7 kts | 180° |
| 2026-04-29 17:30 | 52.31415 | 4.75924 | 5 ft | 7 kts | 178° |
| 2026-04-29 17:30 | 52.31369 | 4.75927 | 5 ft | 6 kts | 178° |
| 2026-04-29 17:30 | 52.31325 | 4.75930 | 5 ft | 6 kts | 178° |
| 2026-04-29 17:31 | 52.31284 | 4.75936 | 5 ft | 5 kts | 174° |
| 2026-04-29 17:31 | 52.31256 | 4.75937 | 5 ft | 3 kts | 188° |
| 2026-04-29 17:31 | 52.31242 | 4.75907 | 5 ft | 4 kts | 246° |
| 2026-04-29 17:31 | 52.31238 | 4.75869 | 5 ft | 3 kts | 262° |
| 2026-04-29 17:32 | 52.31236 | 4.75842 | 5 ft | 1 kts | 264° |
| 2026-04-29 17:32 | 52.31236 | 4.75840 | 5 ft | 0 kts | 264° |
| 2026-04-29 17:32 | 52.31235 | 4.75828 | 5 ft | 0 kts | 265° |
| 2026-04-29 17:32 | 52.31235 | 4.75818 | 5 ft | 0 kts | 266° |
| 2026-04-29 17:33 | 52.31235 | 4.75816 | 5 ft | 0 kts | 266° |